<?xml version="1.0" encoding="UTF-8" standalone="no" ?>
<gpx xmlns="http://www.topografix.com/GPX/1/1" xmlns:xsi="http://www.w3.org/2001/XMLSchema-instance" xsi:schemaLocation="http://www.topografix.com/GPX/1/1 http://www.topografix.com/GPX/1/1/gpx.xsd" version="1.1" creator="VisuGPX - https://www.visugpx.com">
  <metadata>
    <name>Grayssas - Nèguevieille - 18-08-2022 - 11.7 km - 201+</name>
  </metadata>
  <trk>
    <name><![CDATA[Grayssas - Nèguevieille - 18-08-2022 - 11.7 km - 201+]]></name>
    <extensions>
      <line xmlns="http://www.topografix.com/GPX/gpx_style/0/2">
        <color>0000FF</color>
        <width>4</width>
      </line>
    </extensions>
    <trkseg>
      <trkpt lat="44.16479" lon="0.87451">
        <ele>160.7</ele>
        <time>2022-08-18T09:01:01+02:00</time>
      </trkpt>
      <trkpt lat="44.16465" lon="0.87455">
        <ele>161.5</ele>
        <time>2022-08-18T09:02:03+02:00</time>
      </trkpt>
      <trkpt lat="44.16454" lon="0.87468">
        <ele>162.8</ele>
        <time>2022-08-18T09:02:23+02:00</time>
      </trkpt>
      <trkpt lat="44.16446" lon="0.87484">
        <ele>164.2</ele>
        <time>2022-08-18T09:02:39+02:00</time>
      </trkpt>
      <trkpt lat="44.16436" lon="0.87497">
        <ele>165.3</ele>
        <time>2022-08-18T09:02:51+02:00</time>
      </trkpt>
      <trkpt lat="44.16424" lon="0.87507">
        <ele>165.9</ele>
        <time>2022-08-18T09:03:03+02:00</time>
      </trkpt>
      <trkpt lat="44.16416" lon="0.87523">
        <ele>166.2</ele>
        <time>2022-08-18T09:03:19+02:00</time>
      </trkpt>
      <trkpt lat="44.16409" lon="0.8754">
        <ele>166.2</ele>
        <time>2022-08-18T09:03:34+02:00</time>
      </trkpt>
      <trkpt lat="44.164" lon="0.87554">
        <ele>166</ele>
        <time>2022-08-18T09:03:49+02:00</time>
      </trkpt>
      <trkpt lat="44.1639" lon="0.87568">
        <ele>165.8</ele>
        <time>2022-08-18T09:04:02+02:00</time>
      </trkpt>
      <trkpt lat="44.16378" lon="0.87579">
        <ele>165.5</ele>
        <time>2022-08-18T09:04:18+02:00</time>
      </trkpt>
      <trkpt lat="44.16368" lon="0.87591">
        <ele>165.4</ele>
        <time>2022-08-18T09:04:30+02:00</time>
      </trkpt>
      <trkpt lat="44.1636" lon="0.87607">
        <ele>165.5</ele>
        <time>2022-08-18T09:04:42+02:00</time>
      </trkpt>
      <trkpt lat="44.16352" lon="0.87622">
        <ele>165.4</ele>
        <time>2022-08-18T09:04:56+02:00</time>
      </trkpt>
      <trkpt lat="44.16344" lon="0.87639">
        <ele>165.3</ele>
        <time>2022-08-18T09:05:12+02:00</time>
      </trkpt>
      <trkpt lat="44.16341" lon="0.87658">
        <ele>165.4</ele>
        <time>2022-08-18T09:05:24+02:00</time>
      </trkpt>
      <trkpt lat="44.16335" lon="0.87675">
        <ele>165.1</ele>
        <time>2022-08-18T09:05:35+02:00</time>
      </trkpt>
      <trkpt lat="44.16328" lon="0.87692">
        <ele>164.2</ele>
        <time>2022-08-18T09:05:54+02:00</time>
      </trkpt>
      <trkpt lat="44.16326" lon="0.87711">
        <ele>164</ele>
        <time>2022-08-18T09:06:11+02:00</time>
      </trkpt>
      <trkpt lat="44.16322" lon="0.8773">
        <ele>163.4</ele>
        <time>2022-08-18T09:06:25+02:00</time>
      </trkpt>
      <trkpt lat="44.16318" lon="0.87747">
        <ele>162.7</ele>
        <time>2022-08-18T09:06:38+02:00</time>
      </trkpt>
      <trkpt lat="44.16315" lon="0.87767">
        <ele>162.3</ele>
        <time>2022-08-18T09:06:56+02:00</time>
      </trkpt>
      <trkpt lat="44.16319" lon="0.87784">
        <ele>163</ele>
        <time>2022-08-18T09:07:06+02:00</time>
      </trkpt>
      <trkpt lat="44.16324" lon="0.87802">
        <ele>163.6</ele>
        <time>2022-08-18T09:07:21+02:00</time>
      </trkpt>
      <trkpt lat="44.16324" lon="0.87822">
        <ele>163.7</ele>
        <time>2022-08-18T09:07:32+02:00</time>
      </trkpt>
      <trkpt lat="44.16329" lon="0.87839">
        <ele>164.2</ele>
        <time>2022-08-18T09:07:43+02:00</time>
      </trkpt>
      <trkpt lat="44.16332" lon="0.87859">
        <ele>163.9</ele>
        <time>2022-08-18T09:07:54+02:00</time>
      </trkpt>
      <trkpt lat="44.16333" lon="0.87878">
        <ele>163.3</ele>
        <time>2022-08-18T09:08:05+02:00</time>
      </trkpt>
      <trkpt lat="44.16332" lon="0.87897">
        <ele>162.5</ele>
        <time>2022-08-18T09:08:15+02:00</time>
      </trkpt>
      <trkpt lat="44.16328" lon="0.87916">
        <ele>161.6</ele>
        <time>2022-08-18T09:08:28+02:00</time>
      </trkpt>
      <trkpt lat="44.1633" lon="0.87936">
        <ele>161.3</ele>
        <time>2022-08-18T09:08:40+02:00</time>
      </trkpt>
      <trkpt lat="44.16332" lon="0.87956">
        <ele>160.9</ele>
        <time>2022-08-18T09:08:55+02:00</time>
      </trkpt>
      <trkpt lat="44.1633" lon="0.87976">
        <ele>160.4</ele>
        <time>2022-08-18T09:09:08+02:00</time>
      </trkpt>
      <trkpt lat="44.16329" lon="0.87995">
        <ele>159.9</ele>
        <time>2022-08-18T09:09:20+02:00</time>
      </trkpt>
      <trkpt lat="44.16327" lon="0.88013">
        <ele>159.9</ele>
        <time>2022-08-18T09:09:32+02:00</time>
      </trkpt>
      <trkpt lat="44.16325" lon="0.88032">
        <ele>160.1</ele>
        <time>2022-08-18T09:09:44+02:00</time>
      </trkpt>
      <trkpt lat="44.16322" lon="0.88051">
        <ele>160.2</ele>
        <time>2022-08-18T09:09:56+02:00</time>
      </trkpt>
      <trkpt lat="44.16317" lon="0.8807">
        <ele>160.4</ele>
        <time>2022-08-18T09:10:07+02:00</time>
      </trkpt>
      <trkpt lat="44.16317" lon="0.8809">
        <ele>160.8</ele>
        <time>2022-08-18T09:10:21+02:00</time>
      </trkpt>
      <trkpt lat="44.16312" lon="0.88109">
        <ele>161.1</ele>
        <time>2022-08-18T09:10:30+02:00</time>
      </trkpt>
      <trkpt lat="44.16317" lon="0.88128">
        <ele>161.7</ele>
        <time>2022-08-18T09:10:41+02:00</time>
      </trkpt>
      <trkpt lat="44.16313" lon="0.88146">
        <ele>162</ele>
        <time>2022-08-18T09:10:52+02:00</time>
      </trkpt>
      <trkpt lat="44.16305" lon="0.88163">
        <ele>162.2</ele>
        <time>2022-08-18T09:11:03+02:00</time>
      </trkpt>
      <trkpt lat="44.16307" lon="0.88182">
        <ele>162.8</ele>
        <time>2022-08-18T09:11:14+02:00</time>
      </trkpt>
      <trkpt lat="44.1631" lon="0.88201">
        <ele>163.4</ele>
        <time>2022-08-18T09:11:26+02:00</time>
      </trkpt>
      <trkpt lat="44.16308" lon="0.88221">
        <ele>163.9</ele>
        <time>2022-08-18T09:11:41+02:00</time>
      </trkpt>
      <trkpt lat="44.16304" lon="0.8824">
        <ele>164.4</ele>
        <time>2022-08-18T09:11:51+02:00</time>
      </trkpt>
      <trkpt lat="44.16301" lon="0.88259">
        <ele>165</ele>
        <time>2022-08-18T09:12:03+02:00</time>
      </trkpt>
      <trkpt lat="44.1629" lon="0.88295">
        <ele>166.6</ele>
        <time>2022-08-18T09:12:28+02:00</time>
      </trkpt>
      <trkpt lat="44.16283" lon="0.88311">
        <ele>167.2</ele>
        <time>2022-08-18T09:12:40+02:00</time>
      </trkpt>
      <trkpt lat="44.16279" lon="0.88331">
        <ele>167.9</ele>
        <time>2022-08-18T09:12:52+02:00</time>
      </trkpt>
      <trkpt lat="44.16274" lon="0.88349">
        <ele>168.9</ele>
        <time>2022-08-18T09:13:04+02:00</time>
      </trkpt>
      <trkpt lat="44.1627" lon="0.88368">
        <ele>170</ele>
        <time>2022-08-18T09:13:23+02:00</time>
      </trkpt>
      <trkpt lat="44.16262" lon="0.88384">
        <ele>170.6</ele>
        <time>2022-08-18T09:13:40+02:00</time>
      </trkpt>
      <trkpt lat="44.1625" lon="0.88395">
        <ele>170.7</ele>
        <time>2022-08-18T09:13:45+02:00</time>
      </trkpt>
      <trkpt lat="44.16238" lon="0.88405">
        <ele>171.3</ele>
        <time>2022-08-18T09:13:53+02:00</time>
      </trkpt>
      <trkpt lat="44.16228" lon="0.88419">
        <ele>172.2</ele>
        <time>2022-08-18T09:14:05+02:00</time>
      </trkpt>
      <trkpt lat="44.16218" lon="0.88433">
        <ele>173.8</ele>
        <time>2022-08-18T09:14:17+02:00</time>
      </trkpt>
      <trkpt lat="44.16208" lon="0.88447">
        <ele>175.4</ele>
        <time>2022-08-18T09:14:28+02:00</time>
      </trkpt>
      <trkpt lat="44.16198" lon="0.8846">
        <ele>177</ele>
        <time>2022-08-18T09:14:38+02:00</time>
      </trkpt>
      <trkpt lat="44.16189" lon="0.88475">
        <ele>178.8</ele>
        <time>2022-08-18T09:14:53+02:00</time>
      </trkpt>
      <trkpt lat="44.16179" lon="0.88488">
        <ele>180.4</ele>
        <time>2022-08-18T09:15:06+02:00</time>
      </trkpt>
      <trkpt lat="44.16168" lon="0.885">
        <ele>182</ele>
        <time>2022-08-18T09:15:21+02:00</time>
      </trkpt>
      <trkpt lat="44.16158" lon="0.88514">
        <ele>182.1</ele>
        <time>2022-08-18T09:15:36+02:00</time>
      </trkpt>
      <trkpt lat="44.16148" lon="0.8853">
        <ele>182.5</ele>
        <time>2022-08-18T09:15:47+02:00</time>
      </trkpt>
      <trkpt lat="44.16134" lon="0.88527">
        <ele>182.9</ele>
        <time>2022-08-18T09:16:05+02:00</time>
      </trkpt>
      <trkpt lat="44.16124" lon="0.88514">
        <ele>182.6</ele>
        <time>2022-08-18T09:16:26+02:00</time>
      </trkpt>
      <trkpt lat="44.16111" lon="0.88504">
        <ele>182.2</ele>
        <time>2022-08-18T09:16:44+02:00</time>
      </trkpt>
      <trkpt lat="44.16099" lon="0.88493">
        <ele>181.1</ele>
        <time>2022-08-18T09:17:00+02:00</time>
      </trkpt>
      <trkpt lat="44.16088" lon="0.88481">
        <ele>179.3</ele>
        <time>2022-08-18T09:17:13+02:00</time>
      </trkpt>
      <trkpt lat="44.16074" lon="0.88479">
        <ele>178.6</ele>
        <time>2022-08-18T09:17:28+02:00</time>
      </trkpt>
      <trkpt lat="44.1606" lon="0.88479">
        <ele>177.9</ele>
        <time>2022-08-18T09:17:40+02:00</time>
      </trkpt>
      <trkpt lat="44.16047" lon="0.88483">
        <ele>177.8</ele>
        <time>2022-08-18T09:17:55+02:00</time>
      </trkpt>
      <trkpt lat="44.16033" lon="0.88486">
        <ele>177.7</ele>
        <time>2022-08-18T09:18:08+02:00</time>
      </trkpt>
      <trkpt lat="44.16018" lon="0.8849">
        <ele>177.5</ele>
        <time>2022-08-18T09:18:20+02:00</time>
      </trkpt>
      <trkpt lat="44.16005" lon="0.88493">
        <ele>177.4</ele>
        <time>2022-08-18T09:18:30+02:00</time>
      </trkpt>
      <trkpt lat="44.15991" lon="0.88496">
        <ele>177.1</ele>
        <time>2022-08-18T09:18:42+02:00</time>
      </trkpt>
      <trkpt lat="44.15977" lon="0.88501">
        <ele>177</ele>
        <time>2022-08-18T09:18:58+02:00</time>
      </trkpt>
      <trkpt lat="44.15964" lon="0.88506">
        <ele>176.8</ele>
        <time>2022-08-18T09:19:14+02:00</time>
      </trkpt>
      <trkpt lat="44.1595" lon="0.88511">
        <ele>176.5</ele>
        <time>2022-08-18T09:19:26+02:00</time>
      </trkpt>
      <trkpt lat="44.15938" lon="0.88522">
        <ele>176.7</ele>
        <time>2022-08-18T09:19:36+02:00</time>
      </trkpt>
      <trkpt lat="44.15925" lon="0.8853">
        <ele>176.6</ele>
        <time>2022-08-18T09:19:49+02:00</time>
      </trkpt>
      <trkpt lat="44.15915" lon="0.88545">
        <ele>177.3</ele>
        <time>2022-08-18T09:20:04+02:00</time>
      </trkpt>
      <trkpt lat="44.15902" lon="0.88555">
        <ele>178.4</ele>
        <time>2022-08-18T09:20:17+02:00</time>
      </trkpt>
      <trkpt lat="44.15891" lon="0.88566">
        <ele>179.3</ele>
        <time>2022-08-18T09:20:31+02:00</time>
      </trkpt>
      <trkpt lat="44.1588" lon="0.88579">
        <ele>180.2</ele>
        <time>2022-08-18T09:20:43+02:00</time>
      </trkpt>
      <trkpt lat="44.1587" lon="0.88594">
        <ele>181.3</ele>
        <time>2022-08-18T09:20:58+02:00</time>
      </trkpt>
      <trkpt lat="44.15861" lon="0.88608">
        <ele>182.3</ele>
        <time>2022-08-18T09:21:13+02:00</time>
      </trkpt>
      <trkpt lat="44.15848" lon="0.88618">
        <ele>183.1</ele>
        <time>2022-08-18T09:21:26+02:00</time>
      </trkpt>
      <trkpt lat="44.15838" lon="0.88632">
        <ele>184</ele>
        <time>2022-08-18T09:21:41+02:00</time>
      </trkpt>
      <trkpt lat="44.15827" lon="0.88643">
        <ele>184.6</ele>
        <time>2022-08-18T09:21:57+02:00</time>
      </trkpt>
      <trkpt lat="44.15816" lon="0.88654">
        <ele>185.3</ele>
        <time>2022-08-18T09:22:10+02:00</time>
      </trkpt>
      <trkpt lat="44.15807" lon="0.88668">
        <ele>186.1</ele>
        <time>2022-08-18T09:22:24+02:00</time>
      </trkpt>
      <trkpt lat="44.15796" lon="0.88681">
        <ele>186.9</ele>
        <time>2022-08-18T09:22:36+02:00</time>
      </trkpt>
      <trkpt lat="44.15786" lon="0.88693">
        <ele>187.6</ele>
        <time>2022-08-18T09:22:52+02:00</time>
      </trkpt>
      <trkpt lat="44.15773" lon="0.88702">
        <ele>188.1</ele>
        <time>2022-08-18T09:23:07+02:00</time>
      </trkpt>
      <trkpt lat="44.15762" lon="0.88713">
        <ele>188.8</ele>
        <time>2022-08-18T09:23:17+02:00</time>
      </trkpt>
      <trkpt lat="44.15749" lon="0.88721">
        <ele>189.1</ele>
        <time>2022-08-18T09:23:32+02:00</time>
      </trkpt>
      <trkpt lat="44.15735" lon="0.88729">
        <ele>188</ele>
        <time>2022-08-18T09:23:42+02:00</time>
      </trkpt>
      <trkpt lat="44.15725" lon="0.88741">
        <ele>187.7</ele>
        <time>2022-08-18T09:23:54+02:00</time>
      </trkpt>
      <trkpt lat="44.15712" lon="0.88747">
        <ele>186.6</ele>
        <time>2022-08-18T09:24:05+02:00</time>
      </trkpt>
      <trkpt lat="44.15697" lon="0.88748">
        <ele>185.2</ele>
        <time>2022-08-18T09:24:19+02:00</time>
      </trkpt>
      <trkpt lat="44.15684" lon="0.88751">
        <ele>183.9</ele>
        <time>2022-08-18T09:24:30+02:00</time>
      </trkpt>
      <trkpt lat="44.15671" lon="0.8876">
        <ele>183</ele>
        <time>2022-08-18T09:24:41+02:00</time>
      </trkpt>
      <trkpt lat="44.15657" lon="0.88763">
        <ele>181.9</ele>
        <time>2022-08-18T09:24:54+02:00</time>
      </trkpt>
      <trkpt lat="44.15643" lon="0.88764">
        <ele>180.6</ele>
        <time>2022-08-18T09:25:09+02:00</time>
      </trkpt>
      <trkpt lat="44.15646" lon="0.88745">
        <ele>179.6</ele>
        <time>2022-08-18T09:25:23+02:00</time>
      </trkpt>
      <trkpt lat="44.15651" lon="0.88727">
        <ele>178.6</ele>
        <time>2022-08-18T09:25:36+02:00</time>
      </trkpt>
      <trkpt lat="44.15657" lon="0.88709">
        <ele>177.6</ele>
        <time>2022-08-18T09:25:46+02:00</time>
      </trkpt>
      <trkpt lat="44.15663" lon="0.88691">
        <ele>176.7</ele>
        <time>2022-08-18T09:25:59+02:00</time>
      </trkpt>
      <trkpt lat="44.1567" lon="0.88674">
        <ele>176.1</ele>
        <time>2022-08-18T09:26:12+02:00</time>
      </trkpt>
      <trkpt lat="44.15677" lon="0.88656">
        <ele>175.9</ele>
        <time>2022-08-18T09:26:24+02:00</time>
      </trkpt>
      <trkpt lat="44.15683" lon="0.88638">
        <ele>176.1</ele>
        <time>2022-08-18T09:26:38+02:00</time>
      </trkpt>
      <trkpt lat="44.15689" lon="0.8862">
        <ele>176.1</ele>
        <time>2022-08-18T09:26:51+02:00</time>
      </trkpt>
      <trkpt lat="44.15693" lon="0.88601">
        <ele>175.9</ele>
        <time>2022-08-18T09:27:04+02:00</time>
      </trkpt>
      <trkpt lat="44.15698" lon="0.88583">
        <ele>175.8</ele>
        <time>2022-08-18T09:27:14+02:00</time>
      </trkpt>
      <trkpt lat="44.15704" lon="0.88564">
        <ele>175.5</ele>
        <time>2022-08-18T09:27:29+02:00</time>
      </trkpt>
      <trkpt lat="44.1571" lon="0.88545">
        <ele>175.4</ele>
        <time>2022-08-18T09:27:39+02:00</time>
      </trkpt>
      <trkpt lat="44.15714" lon="0.88526">
        <ele>174.8</ele>
        <time>2022-08-18T09:27:48+02:00</time>
      </trkpt>
      <trkpt lat="44.15717" lon="0.88507">
        <ele>174.2</ele>
        <time>2022-08-18T09:27:59+02:00</time>
      </trkpt>
      <trkpt lat="44.15723" lon="0.88489">
        <ele>174.3</ele>
        <time>2022-08-18T09:28:10+02:00</time>
      </trkpt>
      <trkpt lat="44.15727" lon="0.88468">
        <ele>174.3</ele>
        <time>2022-08-18T09:28:25+02:00</time>
      </trkpt>
      <trkpt lat="44.15728" lon="0.88449">
        <ele>174.2</ele>
        <time>2022-08-18T09:28:30+02:00</time>
      </trkpt>
      <trkpt lat="44.15728" lon="0.88429">
        <ele>174</ele>
        <time>2022-08-18T09:28:41+02:00</time>
      </trkpt>
      <trkpt lat="44.1573" lon="0.8841">
        <ele>174</ele>
        <time>2022-08-18T09:28:59+02:00</time>
      </trkpt>
      <trkpt lat="44.15731" lon="0.8839">
        <ele>173.7</ele>
        <time>2022-08-18T09:29:13+02:00</time>
      </trkpt>
      <trkpt lat="44.1573" lon="0.88371">
        <ele>173.2</ele>
        <time>2022-08-18T09:29:25+02:00</time>
      </trkpt>
      <trkpt lat="44.15731" lon="0.88352">
        <ele>172.9</ele>
        <time>2022-08-18T09:29:40+02:00</time>
      </trkpt>
      <trkpt lat="44.15731" lon="0.88332">
        <ele>172.4</ele>
        <time>2022-08-18T09:29:54+02:00</time>
      </trkpt>
      <trkpt lat="44.15724" lon="0.88315">
        <ele>171.3</ele>
        <time>2022-08-18T09:30:18+02:00</time>
      </trkpt>
      <trkpt lat="44.1571" lon="0.88312">
        <ele>169.5</ele>
        <time>2022-08-18T09:30:35+02:00</time>
      </trkpt>
      <trkpt lat="44.15697" lon="0.88313">
        <ele>167.7</ele>
        <time>2022-08-18T09:30:49+02:00</time>
      </trkpt>
      <trkpt lat="44.15683" lon="0.88313">
        <ele>165.9</ele>
        <time>2022-08-18T09:31:07+02:00</time>
      </trkpt>
      <trkpt lat="44.15669" lon="0.88313">
        <ele>164</ele>
        <time>2022-08-18T09:31:21+02:00</time>
      </trkpt>
      <trkpt lat="44.15655" lon="0.88311">
        <ele>162.5</ele>
        <time>2022-08-18T09:31:39+02:00</time>
      </trkpt>
      <trkpt lat="44.15641" lon="0.88308">
        <ele>161</ele>
        <time>2022-08-18T09:31:51+02:00</time>
      </trkpt>
      <trkpt lat="44.15626" lon="0.88305">
        <ele>159.5</ele>
        <time>2022-08-18T09:32:05+02:00</time>
      </trkpt>
      <trkpt lat="44.15612" lon="0.88305">
        <ele>157.9</ele>
        <time>2022-08-18T09:32:17+02:00</time>
      </trkpt>
      <trkpt lat="44.15598" lon="0.88306">
        <ele>156.5</ele>
        <time>2022-08-18T09:32:27+02:00</time>
      </trkpt>
      <trkpt lat="44.15584" lon="0.88309">
        <ele>155</ele>
        <time>2022-08-18T09:32:38+02:00</time>
      </trkpt>
      <trkpt lat="44.1557" lon="0.88312">
        <ele>154.6</ele>
        <time>2022-08-18T09:32:49+02:00</time>
      </trkpt>
      <trkpt lat="44.15556" lon="0.8831">
        <ele>154.1</ele>
        <time>2022-08-18T09:33:01+02:00</time>
      </trkpt>
      <trkpt lat="44.15543" lon="0.88303">
        <ele>153.5</ele>
        <time>2022-08-18T09:33:15+02:00</time>
      </trkpt>
      <trkpt lat="44.15529" lon="0.88299">
        <ele>152.9</ele>
        <time>2022-08-18T09:33:28+02:00</time>
      </trkpt>
      <trkpt lat="44.15515" lon="0.88293">
        <ele>152.2</ele>
        <time>2022-08-18T09:33:41+02:00</time>
      </trkpt>
      <trkpt lat="44.15502" lon="0.88293">
        <ele>151.6</ele>
        <time>2022-08-18T09:33:55+02:00</time>
      </trkpt>
      <trkpt lat="44.15488" lon="0.88292">
        <ele>152.8</ele>
        <time>2022-08-18T09:34:09+02:00</time>
      </trkpt>
      <trkpt lat="44.15474" lon="0.8829">
        <ele>154.2</ele>
        <time>2022-08-18T09:34:24+02:00</time>
      </trkpt>
      <trkpt lat="44.15466" lon="0.88274">
        <ele>154.2</ele>
        <time>2022-08-18T09:34:38+02:00</time>
      </trkpt>
      <trkpt lat="44.15459" lon="0.88257">
        <ele>153.9</ele>
        <time>2022-08-18T09:34:47+02:00</time>
      </trkpt>
      <trkpt lat="44.15452" lon="0.8824">
        <ele>153.2</ele>
        <time>2022-08-18T09:35:01+02:00</time>
      </trkpt>
      <trkpt lat="44.15446" lon="0.88223">
        <ele>152.3</ele>
        <time>2022-08-18T09:35:14+02:00</time>
      </trkpt>
      <trkpt lat="44.15443" lon="0.88204">
        <ele>150.9</ele>
        <time>2022-08-18T09:35:26+02:00</time>
      </trkpt>
      <trkpt lat="44.15437" lon="0.88187">
        <ele>149.8</ele>
        <time>2022-08-18T09:35:38+02:00</time>
      </trkpt>
      <trkpt lat="44.15436" lon="0.88168">
        <ele>148.2</ele>
        <time>2022-08-18T09:35:52+02:00</time>
      </trkpt>
      <trkpt lat="44.1543" lon="0.88151">
        <ele>147.6</ele>
        <time>2022-08-18T09:36:07+02:00</time>
      </trkpt>
      <trkpt lat="44.15424" lon="0.88133">
        <ele>146.9</ele>
        <time>2022-08-18T09:36:21+02:00</time>
      </trkpt>
      <trkpt lat="44.15422" lon="0.88115">
        <ele>145.9</ele>
        <time>2022-08-18T09:36:33+02:00</time>
      </trkpt>
      <trkpt lat="44.15417" lon="0.88096">
        <ele>144.8</ele>
        <time>2022-08-18T09:36:48+02:00</time>
      </trkpt>
      <trkpt lat="44.15406" lon="0.88082">
        <ele>144</ele>
        <time>2022-08-18T09:37:01+02:00</time>
      </trkpt>
      <trkpt lat="44.15394" lon="0.88072">
        <ele>143.5</ele>
        <time>2022-08-18T09:37:19+02:00</time>
      </trkpt>
      <trkpt lat="44.15384" lon="0.88057">
        <ele>142.7</ele>
        <time>2022-08-18T09:37:35+02:00</time>
      </trkpt>
      <trkpt lat="44.15374" lon="0.88044">
        <ele>141.8</ele>
        <time>2022-08-18T09:37:51+02:00</time>
      </trkpt>
      <trkpt lat="44.15366" lon="0.88028">
        <ele>140.8</ele>
        <time>2022-08-18T09:38:07+02:00</time>
      </trkpt>
      <trkpt lat="44.15362" lon="0.8801">
        <ele>139.6</ele>
        <time>2022-08-18T09:38:45+02:00</time>
      </trkpt>
      <trkpt lat="44.15358" lon="0.87991">
        <ele>138.9</ele>
        <time>2022-08-18T09:39:15+02:00</time>
      </trkpt>
      <trkpt lat="44.1535" lon="0.87975">
        <ele>138.2</ele>
        <time>2022-08-18T09:39:39+02:00</time>
      </trkpt>
      <trkpt lat="44.15346" lon="0.87957">
        <ele>137.6</ele>
        <time>2022-08-18T09:39:58+02:00</time>
      </trkpt>
      <trkpt lat="44.15336" lon="0.87944">
        <ele>136.3</ele>
        <time>2022-08-18T09:40:09+02:00</time>
      </trkpt>
      <trkpt lat="44.15323" lon="0.87937">
        <ele>136.4</ele>
        <time>2022-08-18T09:40:22+02:00</time>
      </trkpt>
      <trkpt lat="44.1531" lon="0.87932">
        <ele>137.1</ele>
        <time>2022-08-18T09:40:37+02:00</time>
      </trkpt>
      <trkpt lat="44.15303" lon="0.87915">
        <ele>137.1</ele>
        <time>2022-08-18T09:40:56+02:00</time>
      </trkpt>
      <trkpt lat="44.15295" lon="0.879">
        <ele>137.3</ele>
        <time>2022-08-18T09:41:21+02:00</time>
      </trkpt>
      <trkpt lat="44.1529" lon="0.87882">
        <ele>137</ele>
        <time>2022-08-18T09:41:39+02:00</time>
      </trkpt>
      <trkpt lat="44.15282" lon="0.87867">
        <ele>136.7</ele>
        <time>2022-08-18T09:41:52+02:00</time>
      </trkpt>
      <trkpt lat="44.15273" lon="0.87852">
        <ele>136.2</ele>
        <time>2022-08-18T09:42:06+02:00</time>
      </trkpt>
      <trkpt lat="44.15263" lon="0.87837">
        <ele>135.3</ele>
        <time>2022-08-18T09:42:22+02:00</time>
      </trkpt>
      <trkpt lat="44.1525" lon="0.87829">
        <ele>134.8</ele>
        <time>2022-08-18T09:42:35+02:00</time>
      </trkpt>
      <trkpt lat="44.15241" lon="0.87815">
        <ele>134.9</ele>
        <time>2022-08-18T09:42:49+02:00</time>
      </trkpt>
      <trkpt lat="44.15228" lon="0.87806">
        <ele>135.7</ele>
        <time>2022-08-18T09:43:06+02:00</time>
      </trkpt>
      <trkpt lat="44.15219" lon="0.8779">
        <ele>135.4</ele>
        <time>2022-08-18T09:43:17+02:00</time>
      </trkpt>
      <trkpt lat="44.1521" lon="0.87774">
        <ele>134.9</ele>
        <time>2022-08-18T09:43:35+02:00</time>
      </trkpt>
      <trkpt lat="44.15205" lon="0.87756">
        <ele>133.8</ele>
        <time>2022-08-18T09:43:48+02:00</time>
      </trkpt>
      <trkpt lat="44.152" lon="0.87738">
        <ele>132.7</ele>
        <time>2022-08-18T09:44:02+02:00</time>
      </trkpt>
      <trkpt lat="44.15197" lon="0.87719">
        <ele>131.5</ele>
        <time>2022-08-18T09:44:15+02:00</time>
      </trkpt>
      <trkpt lat="44.15199" lon="0.877">
        <ele>130</ele>
        <time>2022-08-18T09:44:27+02:00</time>
      </trkpt>
      <trkpt lat="44.15202" lon="0.8768">
        <ele>128.5</ele>
        <time>2022-08-18T09:44:39+02:00</time>
      </trkpt>
      <trkpt lat="44.15201" lon="0.8766">
        <ele>127.2</ele>
        <time>2022-08-18T09:44:52+02:00</time>
      </trkpt>
      <trkpt lat="44.15202" lon="0.87641">
        <ele>126.3</ele>
        <time>2022-08-18T09:45:02+02:00</time>
      </trkpt>
      <trkpt lat="44.15197" lon="0.87623">
        <ele>125.5</ele>
        <time>2022-08-18T09:45:17+02:00</time>
      </trkpt>
      <trkpt lat="44.15196" lon="0.87604">
        <ele>124.6</ele>
        <time>2022-08-18T09:45:33+02:00</time>
      </trkpt>
      <trkpt lat="44.15192" lon="0.87584">
        <ele>123.8</ele>
        <time>2022-08-18T09:45:46+02:00</time>
      </trkpt>
      <trkpt lat="44.15189" lon="0.87565">
        <ele>124.6</ele>
        <time>2022-08-18T09:46:01+02:00</time>
      </trkpt>
      <trkpt lat="44.15193" lon="0.87546">
        <ele>125</ele>
        <time>2022-08-18T09:46:15+02:00</time>
      </trkpt>
      <trkpt lat="44.15196" lon="0.87527">
        <ele>125.3</ele>
        <time>2022-08-18T09:46:28+02:00</time>
      </trkpt>
      <trkpt lat="44.15194" lon="0.87508">
        <ele>126.2</ele>
        <time>2022-08-18T09:46:43+02:00</time>
      </trkpt>
      <trkpt lat="44.15196" lon="0.87489">
        <ele>126.9</ele>
        <time>2022-08-18T09:46:55+02:00</time>
      </trkpt>
      <trkpt lat="44.15198" lon="0.87469">
        <ele>128</ele>
        <time>2022-08-18T09:47:08+02:00</time>
      </trkpt>
      <trkpt lat="44.15204" lon="0.87452">
        <ele>128.2</ele>
        <time>2022-08-18T09:47:23+02:00</time>
      </trkpt>
      <trkpt lat="44.15209" lon="0.87434">
        <ele>128.3</ele>
        <time>2022-08-18T09:47:34+02:00</time>
      </trkpt>
      <trkpt lat="44.15213" lon="0.87416">
        <ele>128.6</ele>
        <time>2022-08-18T09:47:45+02:00</time>
      </trkpt>
      <trkpt lat="44.15218" lon="0.87397">
        <ele>128.1</ele>
        <time>2022-08-18T09:47:59+02:00</time>
      </trkpt>
      <trkpt lat="44.15218" lon="0.87378">
        <ele>128.7</ele>
        <time>2022-08-18T09:48:14+02:00</time>
      </trkpt>
      <trkpt lat="44.15223" lon="0.8736">
        <ele>128.2</ele>
        <time>2022-08-18T09:48:27+02:00</time>
      </trkpt>
      <trkpt lat="44.15224" lon="0.87341">
        <ele>128.4</ele>
        <time>2022-08-18T09:48:41+02:00</time>
      </trkpt>
      <trkpt lat="44.15226" lon="0.87321">
        <ele>127.5</ele>
        <time>2022-08-18T09:49:00+02:00</time>
      </trkpt>
      <trkpt lat="44.15235" lon="0.87308">
        <ele>124.9</ele>
        <time>2022-08-18T09:49:37+02:00</time>
      </trkpt>
      <trkpt lat="44.15237" lon="0.87289">
        <ele>123.6</ele>
        <time>2022-08-18T09:50:34+02:00</time>
      </trkpt>
      <trkpt lat="44.15243" lon="0.87271">
        <ele>121.9</ele>
        <time>2022-08-18T09:50:51+02:00</time>
      </trkpt>
      <trkpt lat="44.15249" lon="0.87253">
        <ele>120.2</ele>
        <time>2022-08-18T09:51:06+02:00</time>
      </trkpt>
      <trkpt lat="44.15254" lon="0.87235">
        <ele>118.6</ele>
        <time>2022-08-18T09:51:24+02:00</time>
      </trkpt>
      <trkpt lat="44.15258" lon="0.87217">
        <ele>117.1</ele>
        <time>2022-08-18T09:51:42+02:00</time>
      </trkpt>
      <trkpt lat="44.15246" lon="0.87208">
        <ele>117.9</ele>
        <time>2022-08-18T09:52:03+02:00</time>
      </trkpt>
      <trkpt lat="44.15233" lon="0.872">
        <ele>118.6</ele>
        <time>2022-08-18T09:52:19+02:00</time>
      </trkpt>
      <trkpt lat="44.15219" lon="0.87196">
        <ele>119.7</ele>
        <time>2022-08-18T09:52:31+02:00</time>
      </trkpt>
      <trkpt lat="44.15204" lon="0.87194">
        <ele>120.8</ele>
        <time>2022-08-18T09:52:44+02:00</time>
      </trkpt>
      <trkpt lat="44.15191" lon="0.87191">
        <ele>121.8</ele>
        <time>2022-08-18T09:52:56+02:00</time>
      </trkpt>
      <trkpt lat="44.15176" lon="0.87195">
        <ele>123.5</ele>
        <time>2022-08-18T09:53:10+02:00</time>
      </trkpt>
      <trkpt lat="44.15164" lon="0.87204">
        <ele>125.6</ele>
        <time>2022-08-18T09:53:31+02:00</time>
      </trkpt>
      <trkpt lat="44.15151" lon="0.87213">
        <ele>127.4</ele>
        <time>2022-08-18T09:53:56+02:00</time>
      </trkpt>
      <trkpt lat="44.15138" lon="0.87216">
        <ele>128.5</ele>
        <time>2022-08-18T09:54:16+02:00</time>
      </trkpt>
      <trkpt lat="44.15124" lon="0.87219">
        <ele>129.5</ele>
        <time>2022-08-18T09:54:30+02:00</time>
      </trkpt>
      <trkpt lat="44.1511" lon="0.8722">
        <ele>130.2</ele>
        <time>2022-08-18T09:54:46+02:00</time>
      </trkpt>
      <trkpt lat="44.15096" lon="0.87222">
        <ele>131</ele>
        <time>2022-08-18T09:55:05+02:00</time>
      </trkpt>
      <trkpt lat="44.15083" lon="0.87225">
        <ele>131.9</ele>
        <time>2022-08-18T09:55:32+02:00</time>
      </trkpt>
      <trkpt lat="44.1507" lon="0.87233">
        <ele>132.8</ele>
        <time>2022-08-18T09:55:50+02:00</time>
      </trkpt>
      <trkpt lat="44.15057" lon="0.87237">
        <ele>133.5</ele>
        <time>2022-08-18T09:56:08+02:00</time>
      </trkpt>
      <trkpt lat="44.15044" lon="0.87246">
        <ele>133.9</ele>
        <time>2022-08-18T09:56:21+02:00</time>
      </trkpt>
      <trkpt lat="44.15031" lon="0.87253">
        <ele>134.6</ele>
        <time>2022-08-18T09:56:36+02:00</time>
      </trkpt>
      <trkpt lat="44.15018" lon="0.87263">
        <ele>135.6</ele>
        <time>2022-08-18T09:56:49+02:00</time>
      </trkpt>
      <trkpt lat="44.15005" lon="0.87269">
        <ele>136.3</ele>
        <time>2022-08-18T09:57:00+02:00</time>
      </trkpt>
      <trkpt lat="44.14993" lon="0.87277">
        <ele>137.6</ele>
        <time>2022-08-18T09:57:10+02:00</time>
      </trkpt>
      <trkpt lat="44.14979" lon="0.87284">
        <ele>139.3</ele>
        <time>2022-08-18T09:57:24+02:00</time>
      </trkpt>
      <trkpt lat="44.14966" lon="0.87293">
        <ele>141</ele>
        <time>2022-08-18T09:57:41+02:00</time>
      </trkpt>
      <trkpt lat="44.14952" lon="0.87297">
        <ele>142.4</ele>
        <time>2022-08-18T09:57:58+02:00</time>
      </trkpt>
      <trkpt lat="44.14938" lon="0.87293">
        <ele>143.3</ele>
        <time>2022-08-18T09:58:10+02:00</time>
      </trkpt>
      <trkpt lat="44.14925" lon="0.87293">
        <ele>144.5</ele>
        <time>2022-08-18T09:58:20+02:00</time>
      </trkpt>
      <trkpt lat="44.14911" lon="0.87295">
        <ele>146</ele>
        <time>2022-08-18T09:58:30+02:00</time>
      </trkpt>
      <trkpt lat="44.14897" lon="0.8729">
        <ele>147.4</ele>
        <time>2022-08-18T09:58:44+02:00</time>
      </trkpt>
      <trkpt lat="44.14883" lon="0.87286">
        <ele>148.9</ele>
        <time>2022-08-18T09:58:57+02:00</time>
      </trkpt>
      <trkpt lat="44.14869" lon="0.87289">
        <ele>150.8</ele>
        <time>2022-08-18T09:59:08+02:00</time>
      </trkpt>
      <trkpt lat="44.14855" lon="0.87285">
        <ele>152.5</ele>
        <time>2022-08-18T09:59:22+02:00</time>
      </trkpt>
      <trkpt lat="44.14842" lon="0.87294">
        <ele>154.5</ele>
        <time>2022-08-18T09:59:37+02:00</time>
      </trkpt>
      <trkpt lat="44.1483" lon="0.87304">
        <ele>156.9</ele>
        <time>2022-08-18T09:59:58+02:00</time>
      </trkpt>
      <trkpt lat="44.14819" lon="0.87317">
        <ele>160.1</ele>
        <time>2022-08-18T10:00:17+02:00</time>
      </trkpt>
      <trkpt lat="44.14806" lon="0.87323">
        <ele>163.6</ele>
        <time>2022-08-18T10:00:34+02:00</time>
      </trkpt>
      <trkpt lat="44.14793" lon="0.87334">
        <ele>167.1</ele>
        <time>2022-08-18T10:00:46+02:00</time>
      </trkpt>
      <trkpt lat="44.14783" lon="0.87347">
        <ele>169.6</ele>
        <time>2022-08-18T10:00:58+02:00</time>
      </trkpt>
      <trkpt lat="44.14771" lon="0.87356">
        <ele>172.5</ele>
        <time>2022-08-18T10:01:14+02:00</time>
      </trkpt>
      <trkpt lat="44.14759" lon="0.87365">
        <ele>175.2</ele>
        <time>2022-08-18T10:01:29+02:00</time>
      </trkpt>
      <trkpt lat="44.14748" lon="0.87377">
        <ele>177</ele>
        <time>2022-08-18T10:01:41+02:00</time>
      </trkpt>
      <trkpt lat="44.14736" lon="0.87387">
        <ele>177.2</ele>
        <time>2022-08-18T10:01:54+02:00</time>
      </trkpt>
      <trkpt lat="44.14724" lon="0.87397">
        <ele>177.3</ele>
        <time>2022-08-18T10:02:08+02:00</time>
      </trkpt>
      <trkpt lat="44.14713" lon="0.8741">
        <ele>177.2</ele>
        <time>2022-08-18T10:02:20+02:00</time>
      </trkpt>
      <trkpt lat="44.14704" lon="0.87424">
        <ele>177</ele>
        <time>2022-08-18T10:02:34+02:00</time>
      </trkpt>
      <trkpt lat="44.14694" lon="0.87438">
        <ele>176.8</ele>
        <time>2022-08-18T10:02:52+02:00</time>
      </trkpt>
      <trkpt lat="44.14682" lon="0.87448">
        <ele>176.7</ele>
        <time>2022-08-18T10:03:05+02:00</time>
      </trkpt>
      <trkpt lat="44.14671" lon="0.8746">
        <ele>176.4</ele>
        <time>2022-08-18T10:03:22+02:00</time>
      </trkpt>
      <trkpt lat="44.14659" lon="0.8747">
        <ele>175.3</ele>
        <time>2022-08-18T10:03:39+02:00</time>
      </trkpt>
      <trkpt lat="44.14649" lon="0.87482">
        <ele>173.8</ele>
        <time>2022-08-18T10:03:50+02:00</time>
      </trkpt>
      <trkpt lat="44.14639" lon="0.87496">
        <ele>172.2</ele>
        <time>2022-08-18T10:04:42+02:00</time>
      </trkpt>
      <trkpt lat="44.14627" lon="0.87504">
        <ele>170.8</ele>
        <time>2022-08-18T10:04:56+02:00</time>
      </trkpt>
      <trkpt lat="44.14614" lon="0.87513">
        <ele>169.5</ele>
        <time>2022-08-18T10:05:10+02:00</time>
      </trkpt>
      <trkpt lat="44.14603" lon="0.87526">
        <ele>168.4</ele>
        <time>2022-08-18T10:05:26+02:00</time>
      </trkpt>
      <trkpt lat="44.14591" lon="0.87536">
        <ele>167.2</ele>
        <time>2022-08-18T10:05:34+02:00</time>
      </trkpt>
      <trkpt lat="44.14578" lon="0.87546">
        <ele>166</ele>
        <time>2022-08-18T10:05:49+02:00</time>
      </trkpt>
      <trkpt lat="44.14565" lon="0.87552">
        <ele>164.9</ele>
        <time>2022-08-18T10:06:10+02:00</time>
      </trkpt>
      <trkpt lat="44.14562" lon="0.87532">
        <ele>164.1</ele>
        <time>2022-08-18T10:07:09+02:00</time>
      </trkpt>
      <trkpt lat="44.14563" lon="0.87513">
        <ele>163.8</ele>
        <time>2022-08-18T10:07:20+02:00</time>
      </trkpt>
      <trkpt lat="44.14565" lon="0.87493">
        <ele>164.1</ele>
        <time>2022-08-18T10:07:32+02:00</time>
      </trkpt>
      <trkpt lat="44.14566" lon="0.87472">
        <ele>165.2</ele>
        <time>2022-08-18T10:07:43+02:00</time>
      </trkpt>
      <trkpt lat="44.14563" lon="0.87452">
        <ele>165.7</ele>
        <time>2022-08-18T10:07:53+02:00</time>
      </trkpt>
      <trkpt lat="44.14561" lon="0.87433">
        <ele>166.3</ele>
        <time>2022-08-18T10:08:03+02:00</time>
      </trkpt>
      <trkpt lat="44.1456" lon="0.87413">
        <ele>167</ele>
        <time>2022-08-18T10:08:18+02:00</time>
      </trkpt>
      <trkpt lat="44.14563" lon="0.87395">
        <ele>168.1</ele>
        <time>2022-08-18T10:08:33+02:00</time>
      </trkpt>
      <trkpt lat="44.14558" lon="0.87377">
        <ele>168</ele>
        <time>2022-08-18T10:08:47+02:00</time>
      </trkpt>
      <trkpt lat="44.14554" lon="0.87358">
        <ele>167.9</ele>
        <time>2022-08-18T10:09:02+02:00</time>
      </trkpt>
      <trkpt lat="44.14552" lon="0.87339">
        <ele>168.1</ele>
        <time>2022-08-18T10:09:14+02:00</time>
      </trkpt>
      <trkpt lat="44.14553" lon="0.8732">
        <ele>168.5</ele>
        <time>2022-08-18T10:09:26+02:00</time>
      </trkpt>
      <trkpt lat="44.14553" lon="0.873">
        <ele>168.5</ele>
        <time>2022-08-18T10:09:40+02:00</time>
      </trkpt>
      <trkpt lat="44.14554" lon="0.8728">
        <ele>168.7</ele>
        <time>2022-08-18T10:09:50+02:00</time>
      </trkpt>
      <trkpt lat="44.14555" lon="0.87261">
        <ele>168.9</ele>
        <time>2022-08-18T10:09:59+02:00</time>
      </trkpt>
      <trkpt lat="44.14561" lon="0.87243">
        <ele>170.1</ele>
        <time>2022-08-18T10:10:11+02:00</time>
      </trkpt>
      <trkpt lat="44.14565" lon="0.87223">
        <ele>171.1</ele>
        <time>2022-08-18T10:10:22+02:00</time>
      </trkpt>
      <trkpt lat="44.14568" lon="0.87204">
        <ele>171.9</ele>
        <time>2022-08-18T10:10:31+02:00</time>
      </trkpt>
      <trkpt lat="44.14573" lon="0.87187">
        <ele>173</ele>
        <time>2022-08-18T10:10:44+02:00</time>
      </trkpt>
      <trkpt lat="44.14578" lon="0.87169">
        <ele>174</ele>
        <time>2022-08-18T10:10:53+02:00</time>
      </trkpt>
      <trkpt lat="44.14583" lon="0.87151">
        <ele>174.7</ele>
        <time>2022-08-18T10:11:05+02:00</time>
      </trkpt>
      <trkpt lat="44.14586" lon="0.87132">
        <ele>175</ele>
        <time>2022-08-18T10:11:17+02:00</time>
      </trkpt>
      <trkpt lat="44.14594" lon="0.87116">
        <ele>176</ele>
        <time>2022-08-18T10:11:37+02:00</time>
      </trkpt>
      <trkpt lat="44.146" lon="0.87097">
        <ele>176.7</ele>
        <time>2022-08-18T10:11:53+02:00</time>
      </trkpt>
      <trkpt lat="44.14602" lon="0.87078">
        <ele>176.8</ele>
        <time>2022-08-18T10:11:56+02:00</time>
      </trkpt>
      <trkpt lat="44.14606" lon="0.87058">
        <ele>176.7</ele>
        <time>2022-08-18T10:12:01+02:00</time>
      </trkpt>
      <trkpt lat="44.14611" lon="0.87038">
        <ele>176.9</ele>
        <time>2022-08-18T10:12:09+02:00</time>
      </trkpt>
      <trkpt lat="44.14616" lon="0.87019">
        <ele>176.9</ele>
        <time>2022-08-18T10:12:19+02:00</time>
      </trkpt>
      <trkpt lat="44.14623" lon="0.87001">
        <ele>177.2</ele>
        <time>2022-08-18T10:12:31+02:00</time>
      </trkpt>
      <trkpt lat="44.14629" lon="0.86983">
        <ele>176.5</ele>
        <time>2022-08-18T10:12:43+02:00</time>
      </trkpt>
      <trkpt lat="44.14634" lon="0.86965">
        <ele>175.3</ele>
        <time>2022-08-18T10:12:55+02:00</time>
      </trkpt>
      <trkpt lat="44.1464" lon="0.86946">
        <ele>174.2</ele>
        <time>2022-08-18T10:13:08+02:00</time>
      </trkpt>
      <trkpt lat="44.14646" lon="0.86928">
        <ele>173.1</ele>
        <time>2022-08-18T10:13:19+02:00</time>
      </trkpt>
      <trkpt lat="44.14651" lon="0.8691">
        <ele>171.9</ele>
        <time>2022-08-18T10:13:31+02:00</time>
      </trkpt>
      <trkpt lat="44.14656" lon="0.86891">
        <ele>170.8</ele>
        <time>2022-08-18T10:13:43+02:00</time>
      </trkpt>
      <trkpt lat="44.1466" lon="0.86873">
        <ele>169.6</ele>
        <time>2022-08-18T10:13:59+02:00</time>
      </trkpt>
      <trkpt lat="44.14664" lon="0.86854">
        <ele>168.5</ele>
        <time>2022-08-18T10:14:13+02:00</time>
      </trkpt>
      <trkpt lat="44.14664" lon="0.86835">
        <ele>166.8</ele>
        <time>2022-08-18T10:14:23+02:00</time>
      </trkpt>
      <trkpt lat="44.14663" lon="0.86815">
        <ele>165.3</ele>
        <time>2022-08-18T10:14:33+02:00</time>
      </trkpt>
      <trkpt lat="44.14666" lon="0.86796">
        <ele>164.2</ele>
        <time>2022-08-18T10:14:47+02:00</time>
      </trkpt>
      <trkpt lat="44.14667" lon="0.86776">
        <ele>162.9</ele>
        <time>2022-08-18T10:14:55+02:00</time>
      </trkpt>
      <trkpt lat="44.14675" lon="0.8676">
        <ele>162.8</ele>
        <time>2022-08-18T10:15:37+02:00</time>
      </trkpt>
      <trkpt lat="44.14673" lon="0.86741">
        <ele>161.7</ele>
        <time>2022-08-18T10:15:54+02:00</time>
      </trkpt>
      <trkpt lat="44.14676" lon="0.86722">
        <ele>161.7</ele>
        <time>2022-08-18T10:16:12+02:00</time>
      </trkpt>
      <trkpt lat="44.14678" lon="0.86703">
        <ele>161.6</ele>
        <time>2022-08-18T10:16:23+02:00</time>
      </trkpt>
      <trkpt lat="44.14681" lon="0.86684">
        <ele>161.5</ele>
        <time>2022-08-18T10:16:34+02:00</time>
      </trkpt>
      <trkpt lat="44.14681" lon="0.86665">
        <ele>161.1</ele>
        <time>2022-08-18T10:16:46+02:00</time>
      </trkpt>
      <trkpt lat="44.14687" lon="0.86647">
        <ele>162.3</ele>
        <time>2022-08-18T10:17:02+02:00</time>
      </trkpt>
      <trkpt lat="44.14687" lon="0.86628">
        <ele>162.7</ele>
        <time>2022-08-18T10:17:19+02:00</time>
      </trkpt>
      <trkpt lat="44.14691" lon="0.86609">
        <ele>163.6</ele>
        <time>2022-08-18T10:17:33+02:00</time>
      </trkpt>
      <trkpt lat="44.14693" lon="0.8659">
        <ele>164.4</ele>
        <time>2022-08-18T10:17:43+02:00</time>
      </trkpt>
      <trkpt lat="44.14693" lon="0.86569">
        <ele>165.5</ele>
        <time>2022-08-18T10:17:55+02:00</time>
      </trkpt>
      <trkpt lat="44.14689" lon="0.8655">
        <ele>166.4</ele>
        <time>2022-08-18T10:18:03+02:00</time>
      </trkpt>
      <trkpt lat="44.1469" lon="0.86531">
        <ele>167.9</ele>
        <time>2022-08-18T10:18:16+02:00</time>
      </trkpt>
      <trkpt lat="44.14691" lon="0.86512">
        <ele>169.5</ele>
        <time>2022-08-18T10:18:30+02:00</time>
      </trkpt>
      <trkpt lat="44.14694" lon="0.86493">
        <ele>171.3</ele>
        <time>2022-08-18T10:18:44+02:00</time>
      </trkpt>
      <trkpt lat="44.147" lon="0.86474">
        <ele>173.4</ele>
        <time>2022-08-18T10:18:58+02:00</time>
      </trkpt>
      <trkpt lat="44.14706" lon="0.86455">
        <ele>175.4</ele>
        <time>2022-08-18T10:19:09+02:00</time>
      </trkpt>
      <trkpt lat="44.14708" lon="0.86435">
        <ele>177</ele>
        <time>2022-08-18T10:19:23+02:00</time>
      </trkpt>
      <trkpt lat="44.14712" lon="0.86417">
        <ele>178.7</ele>
        <time>2022-08-18T10:19:43+02:00</time>
      </trkpt>
      <trkpt lat="44.14721" lon="0.864">
        <ele>178.8</ele>
        <time>2022-08-18T10:19:57+02:00</time>
      </trkpt>
      <trkpt lat="44.14721" lon="0.86364">
        <ele>177.9</ele>
        <time>2022-08-18T10:20:32+02:00</time>
      </trkpt>
      <trkpt lat="44.14715" lon="0.86346">
        <ele>177.5</ele>
        <time>2022-08-18T10:20:51+02:00</time>
      </trkpt>
      <trkpt lat="44.14706" lon="0.86331">
        <ele>177.5</ele>
        <time>2022-08-18T10:21:04+02:00</time>
      </trkpt>
      <trkpt lat="44.14695" lon="0.86318">
        <ele>177.6</ele>
        <time>2022-08-18T10:21:20+02:00</time>
      </trkpt>
      <trkpt lat="44.14701" lon="0.863">
        <ele>176.9</ele>
        <time>2022-08-18T10:21:33+02:00</time>
      </trkpt>
      <trkpt lat="44.14706" lon="0.86281">
        <ele>176.1</ele>
        <time>2022-08-18T10:21:45+02:00</time>
      </trkpt>
      <trkpt lat="44.14712" lon="0.86264">
        <ele>175.2</ele>
        <time>2022-08-18T10:21:56+02:00</time>
      </trkpt>
      <trkpt lat="44.14719" lon="0.86246">
        <ele>174.1</ele>
        <time>2022-08-18T10:22:11+02:00</time>
      </trkpt>
      <trkpt lat="44.14725" lon="0.86229">
        <ele>173.2</ele>
        <time>2022-08-18T10:22:24+02:00</time>
      </trkpt>
      <trkpt lat="44.14724" lon="0.8621">
        <ele>172.8</ele>
        <time>2022-08-18T10:22:48+02:00</time>
      </trkpt>
      <trkpt lat="44.14718" lon="0.86192">
        <ele>172.6</ele>
        <time>2022-08-18T10:23:07+02:00</time>
      </trkpt>
      <trkpt lat="44.1472" lon="0.86173">
        <ele>172</ele>
        <time>2022-08-18T10:23:19+02:00</time>
      </trkpt>
      <trkpt lat="44.14724" lon="0.86152">
        <ele>170.8</ele>
        <time>2022-08-18T10:23:32+02:00</time>
      </trkpt>
      <trkpt lat="44.14729" lon="0.86134">
        <ele>169.6</ele>
        <time>2022-08-18T10:23:40+02:00</time>
      </trkpt>
      <trkpt lat="44.14737" lon="0.86117">
        <ele>168.1</ele>
        <time>2022-08-18T10:23:51+02:00</time>
      </trkpt>
      <trkpt lat="44.14744" lon="0.861">
        <ele>166.5</ele>
        <time>2022-08-18T10:24:04+02:00</time>
      </trkpt>
      <trkpt lat="44.1474" lon="0.86082">
        <ele>165.8</ele>
        <time>2022-08-18T10:24:17+02:00</time>
      </trkpt>
      <trkpt lat="44.14734" lon="0.86065">
        <ele>164.9</ele>
        <time>2022-08-18T10:24:29+02:00</time>
      </trkpt>
      <trkpt lat="44.14737" lon="0.86046">
        <ele>162.9</ele>
        <time>2022-08-18T10:24:42+02:00</time>
      </trkpt>
      <trkpt lat="44.14741" lon="0.86025">
        <ele>160.5</ele>
        <time>2022-08-18T10:24:59+02:00</time>
      </trkpt>
      <trkpt lat="44.14747" lon="0.86007">
        <ele>158</ele>
        <time>2022-08-18T10:25:12+02:00</time>
      </trkpt>
      <trkpt lat="44.14748" lon="0.85987">
        <ele>157.6</ele>
        <time>2022-08-18T10:25:28+02:00</time>
      </trkpt>
      <trkpt lat="44.14741" lon="0.8597">
        <ele>158.8</ele>
        <time>2022-08-18T10:25:42+02:00</time>
      </trkpt>
      <trkpt lat="44.14741" lon="0.85949">
        <ele>159.2</ele>
        <time>2022-08-18T10:26:03+02:00</time>
      </trkpt>
      <trkpt lat="44.14743" lon="0.8593">
        <ele>159.4</ele>
        <time>2022-08-18T10:26:19+02:00</time>
      </trkpt>
      <trkpt lat="44.14745" lon="0.85909">
        <ele>159.9</ele>
        <time>2022-08-18T10:26:37+02:00</time>
      </trkpt>
      <trkpt lat="44.14752" lon="0.85892">
        <ele>160.1</ele>
        <time>2022-08-18T10:27:04+02:00</time>
      </trkpt>
      <trkpt lat="44.14754" lon="0.85873">
        <ele>160.7</ele>
        <time>2022-08-18T10:27:24+02:00</time>
      </trkpt>
      <trkpt lat="44.14751" lon="0.85855">
        <ele>161.9</ele>
        <time>2022-08-18T10:27:42+02:00</time>
      </trkpt>
      <trkpt lat="44.14751" lon="0.85835">
        <ele>162.8</ele>
        <time>2022-08-18T10:27:59+02:00</time>
      </trkpt>
      <trkpt lat="44.14748" lon="0.85816">
        <ele>163.9</ele>
        <time>2022-08-18T10:28:18+02:00</time>
      </trkpt>
      <trkpt lat="44.14753" lon="0.85798">
        <ele>164.5</ele>
        <time>2022-08-18T10:28:44+02:00</time>
      </trkpt>
      <trkpt lat="44.14762" lon="0.85784">
        <ele>164.2</ele>
        <time>2022-08-18T10:29:06+02:00</time>
      </trkpt>
      <trkpt lat="44.14774" lon="0.85773">
        <ele>163.5</ele>
        <time>2022-08-18T10:29:20+02:00</time>
      </trkpt>
      <trkpt lat="44.14787" lon="0.85762">
        <ele>162.9</ele>
        <time>2022-08-18T10:29:30+02:00</time>
      </trkpt>
      <trkpt lat="44.14799" lon="0.85752">
        <ele>162.2</ele>
        <time>2022-08-18T10:29:40+02:00</time>
      </trkpt>
      <trkpt lat="44.14805" lon="0.85735">
        <ele>163.1</ele>
        <time>2022-08-18T10:29:55+02:00</time>
      </trkpt>
      <trkpt lat="44.14815" lon="0.8572">
        <ele>163.7</ele>
        <time>2022-08-18T10:30:06+02:00</time>
      </trkpt>
      <trkpt lat="44.1483" lon="0.8571">
        <ele>163.5</ele>
        <time>2022-08-18T10:30:25+02:00</time>
      </trkpt>
      <trkpt lat="44.14841" lon="0.85698">
        <ele>162.5</ele>
        <time>2022-08-18T10:30:35+02:00</time>
      </trkpt>
      <trkpt lat="44.14854" lon="0.85686">
        <ele>160.2</ele>
        <time>2022-08-18T10:30:53+02:00</time>
      </trkpt>
      <trkpt lat="44.1486" lon="0.85669">
        <ele>160.4</ele>
        <time>2022-08-18T10:31:09+02:00</time>
      </trkpt>
      <trkpt lat="44.14861" lon="0.85649">
        <ele>161.7</ele>
        <time>2022-08-18T10:31:34+02:00</time>
      </trkpt>
      <trkpt lat="44.14866" lon="0.85631">
        <ele>161.7</ele>
        <time>2022-08-18T10:31:53+02:00</time>
      </trkpt>
      <trkpt lat="44.14873" lon="0.85614">
        <ele>161.6</ele>
        <time>2022-08-18T10:32:05+02:00</time>
      </trkpt>
      <trkpt lat="44.14881" lon="0.85598">
        <ele>161.6</ele>
        <time>2022-08-18T10:32:13+02:00</time>
      </trkpt>
      <trkpt lat="44.14887" lon="0.8558">
        <ele>162.4</ele>
        <time>2022-08-18T10:32:22+02:00</time>
      </trkpt>
      <trkpt lat="44.14894" lon="0.85564">
        <ele>161.5</ele>
        <time>2022-08-18T10:32:38+02:00</time>
      </trkpt>
      <trkpt lat="44.14902" lon="0.85549">
        <ele>160.6</ele>
        <time>2022-08-18T10:32:50+02:00</time>
      </trkpt>
      <trkpt lat="44.14906" lon="0.85529">
        <ele>160.5</ele>
        <time>2022-08-18T10:32:59+02:00</time>
      </trkpt>
      <trkpt lat="44.14915" lon="0.85514">
        <ele>159.9</ele>
        <time>2022-08-18T10:33:05+02:00</time>
      </trkpt>
      <trkpt lat="44.14921" lon="0.85497">
        <ele>159.4</ele>
        <time>2022-08-18T10:33:16+02:00</time>
      </trkpt>
      <trkpt lat="44.14925" lon="0.85478">
        <ele>159</ele>
        <time>2022-08-18T10:33:29+02:00</time>
      </trkpt>
      <trkpt lat="44.14925" lon="0.85459">
        <ele>159.4</ele>
        <time>2022-08-18T10:33:44+02:00</time>
      </trkpt>
      <trkpt lat="44.14927" lon="0.85438">
        <ele>159.4</ele>
        <time>2022-08-18T10:33:54+02:00</time>
      </trkpt>
      <trkpt lat="44.14924" lon="0.85419">
        <ele>160.1</ele>
        <time>2022-08-18T10:34:21+02:00</time>
      </trkpt>
      <trkpt lat="44.14936" lon="0.85407">
        <ele>158.8</ele>
        <time>2022-08-18T10:34:35+02:00</time>
      </trkpt>
      <trkpt lat="44.14942" lon="0.85389">
        <ele>157.8</ele>
        <time>2022-08-18T10:34:49+02:00</time>
      </trkpt>
      <trkpt lat="44.14945" lon="0.8537">
        <ele>157.2</ele>
        <time>2022-08-18T10:35:04+02:00</time>
      </trkpt>
      <trkpt lat="44.14958" lon="0.85361">
        <ele>156.2</ele>
        <time>2022-08-18T10:35:25+02:00</time>
      </trkpt>
      <trkpt lat="44.14971" lon="0.85357">
        <ele>155.3</ele>
        <time>2022-08-18T10:35:40+02:00</time>
      </trkpt>
      <trkpt lat="44.14985" lon="0.85359">
        <ele>154.4</ele>
        <time>2022-08-18T10:35:59+02:00</time>
      </trkpt>
      <trkpt lat="44.14999" lon="0.85363">
        <ele>153.4</ele>
        <time>2022-08-18T10:36:12+02:00</time>
      </trkpt>
      <trkpt lat="44.15012" lon="0.85365">
        <ele>151.6</ele>
        <time>2022-08-18T10:36:23+02:00</time>
      </trkpt>
      <trkpt lat="44.15026" lon="0.85369">
        <ele>149.5</ele>
        <time>2022-08-18T10:36:38+02:00</time>
      </trkpt>
      <trkpt lat="44.1504" lon="0.85366">
        <ele>147.8</ele>
        <time>2022-08-18T10:36:58+02:00</time>
      </trkpt>
      <trkpt lat="44.15054" lon="0.85367">
        <ele>145.7</ele>
        <time>2022-08-18T10:37:18+02:00</time>
      </trkpt>
      <trkpt lat="44.15068" lon="0.85372">
        <ele>143.2</ele>
        <time>2022-08-18T10:37:36+02:00</time>
      </trkpt>
      <trkpt lat="44.15083" lon="0.85373">
        <ele>140.8</ele>
        <time>2022-08-18T10:37:50+02:00</time>
      </trkpt>
      <trkpt lat="44.15097" lon="0.85376">
        <ele>139.3</ele>
        <time>2022-08-18T10:38:03+02:00</time>
      </trkpt>
      <trkpt lat="44.15112" lon="0.85378">
        <ele>137.9</ele>
        <time>2022-08-18T10:38:18+02:00</time>
      </trkpt>
      <trkpt lat="44.15126" lon="0.85378">
        <ele>136.8</ele>
        <time>2022-08-18T10:38:30+02:00</time>
      </trkpt>
      <trkpt lat="44.1514" lon="0.85377">
        <ele>135.8</ele>
        <time>2022-08-18T10:38:43+02:00</time>
      </trkpt>
      <trkpt lat="44.15154" lon="0.85377">
        <ele>134.8</ele>
        <time>2022-08-18T10:38:59+02:00</time>
      </trkpt>
      <trkpt lat="44.15167" lon="0.85371">
        <ele>134.4</ele>
        <time>2022-08-18T10:39:11+02:00</time>
      </trkpt>
      <trkpt lat="44.15181" lon="0.85363">
        <ele>133.9</ele>
        <time>2022-08-18T10:39:23+02:00</time>
      </trkpt>
      <trkpt lat="44.15187" lon="0.85346">
        <ele>134.8</ele>
        <time>2022-08-18T10:39:38+02:00</time>
      </trkpt>
      <trkpt lat="44.15201" lon="0.85339">
        <ele>133.9</ele>
        <time>2022-08-18T10:39:53+02:00</time>
      </trkpt>
      <trkpt lat="44.15214" lon="0.85342">
        <ele>132.3</ele>
        <time>2022-08-18T10:40:11+02:00</time>
      </trkpt>
      <trkpt lat="44.15227" lon="0.85333">
        <ele>131.5</ele>
        <time>2022-08-18T10:40:27+02:00</time>
      </trkpt>
      <trkpt lat="44.1524" lon="0.85327">
        <ele>129.5</ele>
        <time>2022-08-18T10:40:43+02:00</time>
      </trkpt>
      <trkpt lat="44.15253" lon="0.85323">
        <ele>127.7</ele>
        <time>2022-08-18T10:41:20+02:00</time>
      </trkpt>
      <trkpt lat="44.15267" lon="0.85314">
        <ele>126.3</ele>
        <time>2022-08-18T10:41:48+02:00</time>
      </trkpt>
      <trkpt lat="44.15281" lon="0.85316">
        <ele>125.9</ele>
        <time>2022-08-18T10:41:59+02:00</time>
      </trkpt>
      <trkpt lat="44.15294" lon="0.85308">
        <ele>124.6</ele>
        <time>2022-08-18T10:42:18+02:00</time>
      </trkpt>
      <trkpt lat="44.15309" lon="0.85306">
        <ele>123.9</ele>
        <time>2022-08-18T10:42:29+02:00</time>
      </trkpt>
      <trkpt lat="44.15322" lon="0.85299">
        <ele>122.9</ele>
        <time>2022-08-18T10:42:38+02:00</time>
      </trkpt>
      <trkpt lat="44.15336" lon="0.85293">
        <ele>121.7</ele>
        <time>2022-08-18T10:42:52+02:00</time>
      </trkpt>
      <trkpt lat="44.1535" lon="0.85288">
        <ele>119.5</ele>
        <time>2022-08-18T10:43:01+02:00</time>
      </trkpt>
      <trkpt lat="44.15364" lon="0.85288">
        <ele>117.6</ele>
        <time>2022-08-18T10:43:14+02:00</time>
      </trkpt>
      <trkpt lat="44.15379" lon="0.85285">
        <ele>115.5</ele>
        <time>2022-08-18T10:43:30+02:00</time>
      </trkpt>
      <trkpt lat="44.15393" lon="0.85283">
        <ele>113.4</ele>
        <time>2022-08-18T10:43:45+02:00</time>
      </trkpt>
      <trkpt lat="44.15407" lon="0.85286">
        <ele>111.8</ele>
        <time>2022-08-18T10:43:55+02:00</time>
      </trkpt>
      <trkpt lat="44.15421" lon="0.85281">
        <ele>110</ele>
        <time>2022-08-18T10:44:28+02:00</time>
      </trkpt>
      <trkpt lat="44.15435" lon="0.85279">
        <ele>109.7</ele>
        <time>2022-08-18T10:45:58+02:00</time>
      </trkpt>
      <trkpt lat="44.15448" lon="0.85287">
        <ele>110.3</ele>
        <time>2022-08-18T10:46:23+02:00</time>
      </trkpt>
      <trkpt lat="44.1545" lon="0.85306">
        <ele>112.2</ele>
        <time>2022-08-18T10:46:45+02:00</time>
      </trkpt>
      <trkpt lat="44.15452" lon="0.85325">
        <ele>114.1</ele>
        <time>2022-08-18T10:47:07+02:00</time>
      </trkpt>
      <trkpt lat="44.15457" lon="0.85344">
        <ele>115.4</ele>
        <time>2022-08-18T10:47:44+02:00</time>
      </trkpt>
      <trkpt lat="44.15471" lon="0.85341">
        <ele>115.3</ele>
        <time>2022-08-18T10:48:15+02:00</time>
      </trkpt>
      <trkpt lat="44.15484" lon="0.85331">
        <ele>114.8</ele>
        <time>2022-08-18T10:48:34+02:00</time>
      </trkpt>
      <trkpt lat="44.15497" lon="0.85324">
        <ele>114</ele>
        <time>2022-08-18T10:48:48+02:00</time>
      </trkpt>
      <trkpt lat="44.15511" lon="0.85322">
        <ele>114</ele>
        <time>2022-08-18T10:49:03+02:00</time>
      </trkpt>
      <trkpt lat="44.15524" lon="0.85328">
        <ele>114.8</ele>
        <time>2022-08-18T10:49:21+02:00</time>
      </trkpt>
      <trkpt lat="44.15539" lon="0.85332">
        <ele>115.3</ele>
        <time>2022-08-18T10:49:38+02:00</time>
      </trkpt>
      <trkpt lat="44.15553" lon="0.85334">
        <ele>115.6</ele>
        <time>2022-08-18T10:49:55+02:00</time>
      </trkpt>
      <trkpt lat="44.15567" lon="0.85342">
        <ele>115</ele>
        <time>2022-08-18T10:50:06+02:00</time>
      </trkpt>
      <trkpt lat="44.15581" lon="0.85345">
        <ele>114.6</ele>
        <time>2022-08-18T10:50:16+02:00</time>
      </trkpt>
      <trkpt lat="44.15594" lon="0.85351">
        <ele>111.7</ele>
        <time>2022-08-18T10:50:31+02:00</time>
      </trkpt>
      <trkpt lat="44.15609" lon="0.85354">
        <ele>108.5</ele>
        <time>2022-08-18T10:50:44+02:00</time>
      </trkpt>
      <trkpt lat="44.15622" lon="0.85359">
        <ele>105.4</ele>
        <time>2022-08-18T10:51:08+02:00</time>
      </trkpt>
      <trkpt lat="44.15631" lon="0.85343">
        <ele>105.4</ele>
        <time>2022-08-18T10:51:28+02:00</time>
      </trkpt>
      <trkpt lat="44.15636" lon="0.8536">
        <ele>102.5</ele>
        <time>2022-08-18T10:52:34+02:00</time>
      </trkpt>
      <trkpt lat="44.15641" lon="0.85378">
        <ele>99.7</ele>
        <time>2022-08-18T10:52:44+02:00</time>
      </trkpt>
      <trkpt lat="44.15646" lon="0.85396">
        <ele>96.9</ele>
        <time>2022-08-18T10:52:53+02:00</time>
      </trkpt>
      <trkpt lat="44.1565" lon="0.85415">
        <ele>94.2</ele>
        <time>2022-08-18T10:53:02+02:00</time>
      </trkpt>
      <trkpt lat="44.15656" lon="0.85432">
        <ele>91.8</ele>
        <time>2022-08-18T10:53:13+02:00</time>
      </trkpt>
      <trkpt lat="44.15658" lon="0.85451">
        <ele>90.1</ele>
        <time>2022-08-18T10:53:37+02:00</time>
      </trkpt>
      <trkpt lat="44.15672" lon="0.85449">
        <ele>88.7</ele>
        <time>2022-08-18T10:54:20+02:00</time>
      </trkpt>
      <trkpt lat="44.15684" lon="0.85439">
        <ele>88</ele>
        <time>2022-08-18T10:54:35+02:00</time>
      </trkpt>
      <trkpt lat="44.15696" lon="0.8545">
        <ele>86.7</ele>
        <time>2022-08-18T10:54:52+02:00</time>
      </trkpt>
      <trkpt lat="44.15702" lon="0.85466">
        <ele>85.8</ele>
        <time>2022-08-18T10:55:05+02:00</time>
      </trkpt>
      <trkpt lat="44.15705" lon="0.85485">
        <ele>85.3</ele>
        <time>2022-08-18T10:55:20+02:00</time>
      </trkpt>
      <trkpt lat="44.15711" lon="0.85503">
        <ele>85.1</ele>
        <time>2022-08-18T10:55:35+02:00</time>
      </trkpt>
      <trkpt lat="44.15715" lon="0.85522">
        <ele>86.2</ele>
        <time>2022-08-18T10:55:49+02:00</time>
      </trkpt>
      <trkpt lat="44.1572" lon="0.8554">
        <ele>86.9</ele>
        <time>2022-08-18T10:56:04+02:00</time>
      </trkpt>
      <trkpt lat="44.15726" lon="0.85558">
        <ele>87.3</ele>
        <time>2022-08-18T10:56:17+02:00</time>
      </trkpt>
      <trkpt lat="44.15726" lon="0.85577">
        <ele>88.3</ele>
        <time>2022-08-18T10:56:31+02:00</time>
      </trkpt>
      <trkpt lat="44.15726" lon="0.85597">
        <ele>89.1</ele>
        <time>2022-08-18T10:56:47+02:00</time>
      </trkpt>
      <trkpt lat="44.15728" lon="0.85616">
        <ele>89.6</ele>
        <time>2022-08-18T10:56:59+02:00</time>
      </trkpt>
      <trkpt lat="44.15733" lon="0.85635">
        <ele>89.4</ele>
        <time>2022-08-18T10:57:12+02:00</time>
      </trkpt>
      <trkpt lat="44.15739" lon="0.85653">
        <ele>88.9</ele>
        <time>2022-08-18T10:57:23+02:00</time>
      </trkpt>
      <trkpt lat="44.15744" lon="0.85671">
        <ele>88.2</ele>
        <time>2022-08-18T10:57:34+02:00</time>
      </trkpt>
      <trkpt lat="44.15745" lon="0.85691">
        <ele>87.6</ele>
        <time>2022-08-18T10:57:47+02:00</time>
      </trkpt>
      <trkpt lat="44.15747" lon="0.85711">
        <ele>87.1</ele>
        <time>2022-08-18T10:57:59+02:00</time>
      </trkpt>
      <trkpt lat="44.15755" lon="0.85728">
        <ele>86.1</ele>
        <time>2022-08-18T10:58:11+02:00</time>
      </trkpt>
      <trkpt lat="44.1576" lon="0.85746">
        <ele>85.7</ele>
        <time>2022-08-18T10:58:22+02:00</time>
      </trkpt>
      <trkpt lat="44.15766" lon="0.85765">
        <ele>85.4</ele>
        <time>2022-08-18T10:58:35+02:00</time>
      </trkpt>
      <trkpt lat="44.15773" lon="0.85782">
        <ele>85.2</ele>
        <time>2022-08-18T10:58:48+02:00</time>
      </trkpt>
      <trkpt lat="44.15774" lon="0.85802">
        <ele>85.1</ele>
        <time>2022-08-18T10:58:59+02:00</time>
      </trkpt>
      <trkpt lat="44.15776" lon="0.8582">
        <ele>85</ele>
        <time>2022-08-18T10:59:10+02:00</time>
      </trkpt>
      <trkpt lat="44.15779" lon="0.8584">
        <ele>85.1</ele>
        <time>2022-08-18T10:59:22+02:00</time>
      </trkpt>
      <trkpt lat="44.15786" lon="0.85858">
        <ele>85.4</ele>
        <time>2022-08-18T10:59:35+02:00</time>
      </trkpt>
      <trkpt lat="44.15794" lon="0.85874">
        <ele>85.6</ele>
        <time>2022-08-18T10:59:47+02:00</time>
      </trkpt>
      <trkpt lat="44.15803" lon="0.8589">
        <ele>85.9</ele>
        <time>2022-08-18T10:59:58+02:00</time>
      </trkpt>
      <trkpt lat="44.15812" lon="0.85905">
        <ele>86.1</ele>
        <time>2022-08-18T11:00:10+02:00</time>
      </trkpt>
      <trkpt lat="44.15817" lon="0.85924">
        <ele>87.1</ele>
        <time>2022-08-18T11:00:23+02:00</time>
      </trkpt>
      <trkpt lat="44.15823" lon="0.85941">
        <ele>88.3</ele>
        <time>2022-08-18T11:00:36+02:00</time>
      </trkpt>
      <trkpt lat="44.15827" lon="0.85959">
        <ele>89.4</ele>
        <time>2022-08-18T11:00:47+02:00</time>
      </trkpt>
      <trkpt lat="44.1583" lon="0.85979">
        <ele>90.7</ele>
        <time>2022-08-18T11:00:58+02:00</time>
      </trkpt>
      <trkpt lat="44.15827" lon="0.85998">
        <ele>92.4</ele>
        <time>2022-08-18T11:01:09+02:00</time>
      </trkpt>
      <trkpt lat="44.15827" lon="0.86017">
        <ele>95.1</ele>
        <time>2022-08-18T11:01:23+02:00</time>
      </trkpt>
      <trkpt lat="44.15835" lon="0.86034">
        <ele>96.7</ele>
        <time>2022-08-18T11:01:38+02:00</time>
      </trkpt>
      <trkpt lat="44.15844" lon="0.86049">
        <ele>97.7</ele>
        <time>2022-08-18T11:01:51+02:00</time>
      </trkpt>
      <trkpt lat="44.15855" lon="0.86062">
        <ele>97.7</ele>
        <time>2022-08-18T11:02:04+02:00</time>
      </trkpt>
      <trkpt lat="44.15866" lon="0.86076">
        <ele>97.4</ele>
        <time>2022-08-18T11:02:17+02:00</time>
      </trkpt>
      <trkpt lat="44.15874" lon="0.86093">
        <ele>97.8</ele>
        <time>2022-08-18T11:02:29+02:00</time>
      </trkpt>
      <trkpt lat="44.15885" lon="0.86106">
        <ele>97.2</ele>
        <time>2022-08-18T11:02:40+02:00</time>
      </trkpt>
      <trkpt lat="44.15895" lon="0.8612">
        <ele>97</ele>
        <time>2022-08-18T11:02:51+02:00</time>
      </trkpt>
      <trkpt lat="44.15903" lon="0.86137">
        <ele>97.7</ele>
        <time>2022-08-18T11:03:03+02:00</time>
      </trkpt>
      <trkpt lat="44.15912" lon="0.86152">
        <ele>98.1</ele>
        <time>2022-08-18T11:03:15+02:00</time>
      </trkpt>
      <trkpt lat="44.15922" lon="0.86165">
        <ele>98.1</ele>
        <time>2022-08-18T11:03:26+02:00</time>
      </trkpt>
      <trkpt lat="44.15932" lon="0.86179">
        <ele>97.4</ele>
        <time>2022-08-18T11:03:37+02:00</time>
      </trkpt>
      <trkpt lat="44.15941" lon="0.86194">
        <ele>97</ele>
        <time>2022-08-18T11:03:49+02:00</time>
      </trkpt>
      <trkpt lat="44.15949" lon="0.86209">
        <ele>96.5</ele>
        <time>2022-08-18T11:04:12+02:00</time>
      </trkpt>
      <trkpt lat="44.15961" lon="0.862">
        <ele>94.2</ele>
        <time>2022-08-18T11:05:03+02:00</time>
      </trkpt>
      <trkpt lat="44.15973" lon="0.8619">
        <ele>92</ele>
        <time>2022-08-18T11:05:15+02:00</time>
      </trkpt>
      <trkpt lat="44.15982" lon="0.86176">
        <ele>89.9</ele>
        <time>2022-08-18T11:05:27+02:00</time>
      </trkpt>
      <trkpt lat="44.15994" lon="0.86165">
        <ele>87.8</ele>
        <time>2022-08-18T11:05:38+02:00</time>
      </trkpt>
      <trkpt lat="44.16007" lon="0.86155">
        <ele>86.9</ele>
        <time>2022-08-18T11:05:52+02:00</time>
      </trkpt>
      <trkpt lat="44.16018" lon="0.86144">
        <ele>87.1</ele>
        <time>2022-08-18T11:06:06+02:00</time>
      </trkpt>
      <trkpt lat="44.16032" lon="0.86152">
        <ele>87.7</ele>
        <time>2022-08-18T11:06:26+02:00</time>
      </trkpt>
      <trkpt lat="44.16043" lon="0.86166">
        <ele>88</ele>
        <time>2022-08-18T11:06:37+02:00</time>
      </trkpt>
      <trkpt lat="44.16054" lon="0.86179">
        <ele>88.5</ele>
        <time>2022-08-18T11:06:47+02:00</time>
      </trkpt>
      <trkpt lat="44.16065" lon="0.86191">
        <ele>88.8</ele>
        <time>2022-08-18T11:06:58+02:00</time>
      </trkpt>
      <trkpt lat="44.16075" lon="0.86204">
        <ele>88.9</ele>
        <time>2022-08-18T11:07:14+02:00</time>
      </trkpt>
      <trkpt lat="44.16085" lon="0.86218">
        <ele>89</ele>
        <time>2022-08-18T11:07:24+02:00</time>
      </trkpt>
      <trkpt lat="44.16095" lon="0.86232">
        <ele>89.3</ele>
        <time>2022-08-18T11:07:39+02:00</time>
      </trkpt>
      <trkpt lat="44.16105" lon="0.86245">
        <ele>89.6</ele>
        <time>2022-08-18T11:07:51+02:00</time>
      </trkpt>
      <trkpt lat="44.16116" lon="0.86258">
        <ele>89.9</ele>
        <time>2022-08-18T11:08:02+02:00</time>
      </trkpt>
      <trkpt lat="44.16126" lon="0.86273">
        <ele>90.3</ele>
        <time>2022-08-18T11:08:12+02:00</time>
      </trkpt>
      <trkpt lat="44.16138" lon="0.86283">
        <ele>90.6</ele>
        <time>2022-08-18T11:08:23+02:00</time>
      </trkpt>
      <trkpt lat="44.1615" lon="0.86294">
        <ele>90.8</ele>
        <time>2022-08-18T11:08:38+02:00</time>
      </trkpt>
      <trkpt lat="44.16159" lon="0.86308">
        <ele>90.9</ele>
        <time>2022-08-18T11:08:51+02:00</time>
      </trkpt>
      <trkpt lat="44.16167" lon="0.86324">
        <ele>91</ele>
        <time>2022-08-18T11:09:01+02:00</time>
      </trkpt>
      <trkpt lat="44.16177" lon="0.86339">
        <ele>91.7</ele>
        <time>2022-08-18T11:09:11+02:00</time>
      </trkpt>
      <trkpt lat="44.16186" lon="0.86353">
        <ele>92.4</ele>
        <time>2022-08-18T11:09:20+02:00</time>
      </trkpt>
      <trkpt lat="44.16198" lon="0.86365">
        <ele>92.9</ele>
        <time>2022-08-18T11:09:32+02:00</time>
      </trkpt>
      <trkpt lat="44.16208" lon="0.8638">
        <ele>93</ele>
        <time>2022-08-18T11:09:44+02:00</time>
      </trkpt>
      <trkpt lat="44.16218" lon="0.86392">
        <ele>92.8</ele>
        <time>2022-08-18T11:09:56+02:00</time>
      </trkpt>
      <trkpt lat="44.16229" lon="0.86404">
        <ele>92.3</ele>
        <time>2022-08-18T11:10:07+02:00</time>
      </trkpt>
      <trkpt lat="44.16239" lon="0.86417">
        <ele>91.5</ele>
        <time>2022-08-18T11:10:23+02:00</time>
      </trkpt>
      <trkpt lat="44.1625" lon="0.86429">
        <ele>91.6</ele>
        <time>2022-08-18T11:10:32+02:00</time>
      </trkpt>
      <trkpt lat="44.16261" lon="0.86443">
        <ele>93.1</ele>
        <time>2022-08-18T11:10:43+02:00</time>
      </trkpt>
      <trkpt lat="44.16271" lon="0.86456">
        <ele>94.2</ele>
        <time>2022-08-18T11:10:54+02:00</time>
      </trkpt>
      <trkpt lat="44.16281" lon="0.86471">
        <ele>95</ele>
        <time>2022-08-18T11:11:03+02:00</time>
      </trkpt>
      <trkpt lat="44.16289" lon="0.86486">
        <ele>95.4</ele>
        <time>2022-08-18T11:11:11+02:00</time>
      </trkpt>
      <trkpt lat="44.16299" lon="0.86501">
        <ele>95.6</ele>
        <time>2022-08-18T11:11:23+02:00</time>
      </trkpt>
      <trkpt lat="44.16307" lon="0.86517">
        <ele>96.5</ele>
        <time>2022-08-18T11:11:33+02:00</time>
      </trkpt>
      <trkpt lat="44.16315" lon="0.86532">
        <ele>97.2</ele>
        <time>2022-08-18T11:11:42+02:00</time>
      </trkpt>
      <trkpt lat="44.16322" lon="0.86549">
        <ele>97.6</ele>
        <time>2022-08-18T11:11:52+02:00</time>
      </trkpt>
      <trkpt lat="44.16332" lon="0.86564">
        <ele>97.6</ele>
        <time>2022-08-18T11:12:04+02:00</time>
      </trkpt>
      <trkpt lat="44.16343" lon="0.86576">
        <ele>97.8</ele>
        <time>2022-08-18T11:12:14+02:00</time>
      </trkpt>
      <trkpt lat="44.16342" lon="0.86595">
        <ele>98.5</ele>
        <time>2022-08-18T11:12:31+02:00</time>
      </trkpt>
      <trkpt lat="44.16333" lon="0.86611">
        <ele>99.7</ele>
        <time>2022-08-18T11:12:44+02:00</time>
      </trkpt>
      <trkpt lat="44.16325" lon="0.86626">
        <ele>101.4</ele>
        <time>2022-08-18T11:12:55+02:00</time>
      </trkpt>
      <trkpt lat="44.16318" lon="0.86643">
        <ele>103.2</ele>
        <time>2022-08-18T11:13:06+02:00</time>
      </trkpt>
      <trkpt lat="44.16309" lon="0.86658">
        <ele>105.3</ele>
        <time>2022-08-18T11:13:18+02:00</time>
      </trkpt>
      <trkpt lat="44.16302" lon="0.86675">
        <ele>106.5</ele>
        <time>2022-08-18T11:13:38+02:00</time>
      </trkpt>
      <trkpt lat="44.16289" lon="0.86668">
        <ele>108.2</ele>
        <time>2022-08-18T11:13:59+02:00</time>
      </trkpt>
      <trkpt lat="44.16276" lon="0.86676">
        <ele>109.5</ele>
        <time>2022-08-18T11:14:12+02:00</time>
      </trkpt>
      <trkpt lat="44.16262" lon="0.86676">
        <ele>111.2</ele>
        <time>2022-08-18T11:14:24+02:00</time>
      </trkpt>
      <trkpt lat="44.1625" lon="0.86684">
        <ele>112.4</ele>
        <time>2022-08-18T11:14:34+02:00</time>
      </trkpt>
      <trkpt lat="44.16237" lon="0.86694">
        <ele>112.4</ele>
        <time>2022-08-18T11:14:46+02:00</time>
      </trkpt>
      <trkpt lat="44.16225" lon="0.86702">
        <ele>112.8</ele>
        <time>2022-08-18T11:14:57+02:00</time>
      </trkpt>
      <trkpt lat="44.16212" lon="0.86712">
        <ele>113.4</ele>
        <time>2022-08-18T11:15:07+02:00</time>
      </trkpt>
      <trkpt lat="44.16199" lon="0.86719">
        <ele>114.2</ele>
        <time>2022-08-18T11:15:18+02:00</time>
      </trkpt>
      <trkpt lat="44.16185" lon="0.86724">
        <ele>115.2</ele>
        <time>2022-08-18T11:15:33+02:00</time>
      </trkpt>
      <trkpt lat="44.16172" lon="0.86732">
        <ele>116.5</ele>
        <time>2022-08-18T11:15:49+02:00</time>
      </trkpt>
      <trkpt lat="44.16162" lon="0.86744">
        <ele>118.5</ele>
        <time>2022-08-18T11:16:02+02:00</time>
      </trkpt>
      <trkpt lat="44.16154" lon="0.8676">
        <ele>120.4</ele>
        <time>2022-08-18T11:16:18+02:00</time>
      </trkpt>
      <trkpt lat="44.16146" lon="0.86776">
        <ele>121.9</ele>
        <time>2022-08-18T11:16:30+02:00</time>
      </trkpt>
      <trkpt lat="44.16133" lon="0.86784">
        <ele>124.1</ele>
        <time>2022-08-18T11:16:43+02:00</time>
      </trkpt>
      <trkpt lat="44.16121" lon="0.86794">
        <ele>126.2</ele>
        <time>2022-08-18T11:16:55+02:00</time>
      </trkpt>
      <trkpt lat="44.16108" lon="0.86801">
        <ele>128.3</ele>
        <time>2022-08-18T11:17:06+02:00</time>
      </trkpt>
      <trkpt lat="44.16095" lon="0.86805">
        <ele>130.5</ele>
        <time>2022-08-18T11:17:16+02:00</time>
      </trkpt>
      <trkpt lat="44.16082" lon="0.86812">
        <ele>132.7</ele>
        <time>2022-08-18T11:17:27+02:00</time>
      </trkpt>
      <trkpt lat="44.16069" lon="0.86819">
        <ele>136.1</ele>
        <time>2022-08-18T11:17:54+02:00</time>
      </trkpt>
      <trkpt lat="44.16055" lon="0.86818">
        <ele>139.8</ele>
        <time>2022-08-18T11:18:07+02:00</time>
      </trkpt>
      <trkpt lat="44.16041" lon="0.86817">
        <ele>143.6</ele>
        <time>2022-08-18T11:19:03+02:00</time>
      </trkpt>
      <trkpt lat="44.16027" lon="0.86817">
        <ele>147.3</ele>
        <time>2022-08-18T11:21:15+02:00</time>
      </trkpt>
      <trkpt lat="44.16015" lon="0.86807">
        <ele>150.3</ele>
        <time>2022-08-18T11:21:32+02:00</time>
      </trkpt>
      <trkpt lat="44.16002" lon="0.86801">
        <ele>153.7</ele>
        <time>2022-08-18T11:21:48+02:00</time>
      </trkpt>
      <trkpt lat="44.15989" lon="0.86807">
        <ele>154.5</ele>
        <time>2022-08-18T11:22:00+02:00</time>
      </trkpt>
      <trkpt lat="44.15975" lon="0.86811">
        <ele>154.8</ele>
        <time>2022-08-18T11:22:17+02:00</time>
      </trkpt>
      <trkpt lat="44.15962" lon="0.86821">
        <ele>155.6</ele>
        <time>2022-08-18T11:22:31+02:00</time>
      </trkpt>
      <trkpt lat="44.1595" lon="0.86834">
        <ele>156.8</ele>
        <time>2022-08-18T11:22:54+02:00</time>
      </trkpt>
      <trkpt lat="44.15945" lon="0.86816">
        <ele>155.6</ele>
        <time>2022-08-18T11:23:37+02:00</time>
      </trkpt>
      <trkpt lat="44.15944" lon="0.86796">
        <ele>154</ele>
        <time>2022-08-18T11:23:51+02:00</time>
      </trkpt>
      <trkpt lat="44.15944" lon="0.86776">
        <ele>152.4</ele>
        <time>2022-08-18T11:24:03+02:00</time>
      </trkpt>
      <trkpt lat="44.15941" lon="0.86757">
        <ele>150.8</ele>
        <time>2022-08-18T11:24:17+02:00</time>
      </trkpt>
      <trkpt lat="44.15938" lon="0.86739">
        <ele>148.3</ele>
        <time>2022-08-18T11:24:27+02:00</time>
      </trkpt>
      <trkpt lat="44.15927" lon="0.86724">
        <ele>145.1</ele>
        <time>2022-08-18T11:24:46+02:00</time>
      </trkpt>
      <trkpt lat="44.15916" lon="0.86712">
        <ele>142</ele>
        <time>2022-08-18T11:24:59+02:00</time>
      </trkpt>
      <trkpt lat="44.15905" lon="0.867">
        <ele>138.1</ele>
        <time>2022-08-18T11:25:38+02:00</time>
      </trkpt>
      <trkpt lat="44.15892" lon="0.86691">
        <ele>134.4</ele>
        <time>2022-08-18T11:25:55+02:00</time>
      </trkpt>
      <trkpt lat="44.15878" lon="0.86696">
        <ele>132.9</ele>
        <time>2022-08-18T11:26:13+02:00</time>
      </trkpt>
      <trkpt lat="44.15866" lon="0.86706">
        <ele>132.4</ele>
        <time>2022-08-18T11:26:25+02:00</time>
      </trkpt>
      <trkpt lat="44.15855" lon="0.86718">
        <ele>132.1</ele>
        <time>2022-08-18T11:26:41+02:00</time>
      </trkpt>
      <trkpt lat="44.15844" lon="0.86731">
        <ele>131.7</ele>
        <time>2022-08-18T11:26:55+02:00</time>
      </trkpt>
      <trkpt lat="44.15833" lon="0.86744">
        <ele>131.3</ele>
        <time>2022-08-18T11:27:11+02:00</time>
      </trkpt>
      <trkpt lat="44.15824" lon="0.86759">
        <ele>135.3</ele>
        <time>2022-08-18T11:27:22+02:00</time>
      </trkpt>
      <trkpt lat="44.15815" lon="0.86774">
        <ele>139.4</ele>
        <time>2022-08-18T11:27:39+02:00</time>
      </trkpt>
      <trkpt lat="44.15804" lon="0.86786">
        <ele>142.8</ele>
        <time>2022-08-18T11:27:52+02:00</time>
      </trkpt>
      <trkpt lat="44.15795" lon="0.86801">
        <ele>145.8</ele>
        <time>2022-08-18T11:28:03+02:00</time>
      </trkpt>
      <trkpt lat="44.15786" lon="0.86816">
        <ele>148.4</ele>
        <time>2022-08-18T11:28:13+02:00</time>
      </trkpt>
      <trkpt lat="44.15777" lon="0.8683">
        <ele>150.3</ele>
        <time>2022-08-18T11:28:26+02:00</time>
      </trkpt>
      <trkpt lat="44.1577" lon="0.86848">
        <ele>152.1</ele>
        <time>2022-08-18T11:28:43+02:00</time>
      </trkpt>
      <trkpt lat="44.1576" lon="0.8686">
        <ele>153.3</ele>
        <time>2022-08-18T11:29:02+02:00</time>
      </trkpt>
      <trkpt lat="44.15746" lon="0.86863">
        <ele>153.2</ele>
        <time>2022-08-18T11:29:15+02:00</time>
      </trkpt>
      <trkpt lat="44.15732" lon="0.86866">
        <ele>152.3</ele>
        <time>2022-08-18T11:29:27+02:00</time>
      </trkpt>
      <trkpt lat="44.15719" lon="0.86861">
        <ele>150.9</ele>
        <time>2022-08-18T11:29:41+02:00</time>
      </trkpt>
      <trkpt lat="44.15709" lon="0.86874">
        <ele>150.9</ele>
        <time>2022-08-18T11:29:53+02:00</time>
      </trkpt>
      <trkpt lat="44.15702" lon="0.86891">
        <ele>151.4</ele>
        <time>2022-08-18T11:30:06+02:00</time>
      </trkpt>
      <trkpt lat="44.15699" lon="0.8691">
        <ele>152.2</ele>
        <time>2022-08-18T11:30:20+02:00</time>
      </trkpt>
      <trkpt lat="44.15694" lon="0.86929">
        <ele>153.1</ele>
        <time>2022-08-18T11:30:35+02:00</time>
      </trkpt>
      <trkpt lat="44.15692" lon="0.86948">
        <ele>154.6</ele>
        <time>2022-08-18T11:30:49+02:00</time>
      </trkpt>
      <trkpt lat="44.1569" lon="0.86967">
        <ele>156.1</ele>
        <time>2022-08-18T11:31:03+02:00</time>
      </trkpt>
      <trkpt lat="44.15688" lon="0.86986">
        <ele>157.5</ele>
        <time>2022-08-18T11:31:17+02:00</time>
      </trkpt>
      <trkpt lat="44.15688" lon="0.87005">
        <ele>159.2</ele>
        <time>2022-08-18T11:31:54+02:00</time>
      </trkpt>
      <trkpt lat="44.15686" lon="0.87024">
        <ele>160.4</ele>
        <time>2022-08-18T11:32:08+02:00</time>
      </trkpt>
      <trkpt lat="44.15684" lon="0.87042">
        <ele>161.6</ele>
        <time>2022-08-18T11:32:21+02:00</time>
      </trkpt>
      <trkpt lat="44.15683" lon="0.87062">
        <ele>163.1</ele>
        <time>2022-08-18T11:32:34+02:00</time>
      </trkpt>
      <trkpt lat="44.15692" lon="0.8708">
        <ele>165.5</ele>
        <time>2022-08-18T11:32:59+02:00</time>
      </trkpt>
      <trkpt lat="44.15694" lon="0.871">
        <ele>166.8</ele>
        <time>2022-08-18T11:34:01+02:00</time>
      </trkpt>
      <trkpt lat="44.1569" lon="0.87119">
        <ele>167.4</ele>
        <time>2022-08-18T11:34:15+02:00</time>
      </trkpt>
      <trkpt lat="44.15683" lon="0.87137">
        <ele>167.7</ele>
        <time>2022-08-18T11:34:38+02:00</time>
      </trkpt>
      <trkpt lat="44.15679" lon="0.87155">
        <ele>168.4</ele>
        <time>2022-08-18T11:34:52+02:00</time>
      </trkpt>
      <trkpt lat="44.15674" lon="0.87174">
        <ele>169</ele>
        <time>2022-08-18T11:35:05+02:00</time>
      </trkpt>
      <trkpt lat="44.15671" lon="0.87193">
        <ele>169.6</ele>
        <time>2022-08-18T11:35:18+02:00</time>
      </trkpt>
      <trkpt lat="44.15664" lon="0.87211">
        <ele>169.6</ele>
        <time>2022-08-18T11:35:37+02:00</time>
      </trkpt>
      <trkpt lat="44.15657" lon="0.87228">
        <ele>169</ele>
        <time>2022-08-18T11:35:47+02:00</time>
      </trkpt>
      <trkpt lat="44.15651" lon="0.87246">
        <ele>169</ele>
        <time>2022-08-18T11:36:00+02:00</time>
      </trkpt>
      <trkpt lat="44.15648" lon="0.87266">
        <ele>168.9</ele>
        <time>2022-08-18T11:36:13+02:00</time>
      </trkpt>
      <trkpt lat="44.15647" lon="0.87285">
        <ele>169.1</ele>
        <time>2022-08-18T11:36:26+02:00</time>
      </trkpt>
      <trkpt lat="44.15649" lon="0.87305">
        <ele>169.8</ele>
        <time>2022-08-18T11:36:38+02:00</time>
      </trkpt>
      <trkpt lat="44.15646" lon="0.87324">
        <ele>169.6</ele>
        <time>2022-08-18T11:36:52+02:00</time>
      </trkpt>
      <trkpt lat="44.15649" lon="0.87343">
        <ele>170.4</ele>
        <time>2022-08-18T11:37:03+02:00</time>
      </trkpt>
      <trkpt lat="44.1565" lon="0.87363">
        <ele>171</ele>
        <time>2022-08-18T11:37:14+02:00</time>
      </trkpt>
      <trkpt lat="44.1565" lon="0.87384">
        <ele>171.5</ele>
        <time>2022-08-18T11:37:27+02:00</time>
      </trkpt>
      <trkpt lat="44.15649" lon="0.87404">
        <ele>171.7</ele>
        <time>2022-08-18T11:37:39+02:00</time>
      </trkpt>
      <trkpt lat="44.15649" lon="0.87423">
        <ele>172.1</ele>
        <time>2022-08-18T11:37:51+02:00</time>
      </trkpt>
      <trkpt lat="44.15649" lon="0.87443">
        <ele>172.2</ele>
        <time>2022-08-18T11:38:06+02:00</time>
      </trkpt>
      <trkpt lat="44.15644" lon="0.87463">
        <ele>171.5</ele>
        <time>2022-08-18T11:38:17+02:00</time>
      </trkpt>
      <trkpt lat="44.15639" lon="0.87482">
        <ele>170.9</ele>
        <time>2022-08-18T11:38:27+02:00</time>
      </trkpt>
      <trkpt lat="44.1564" lon="0.87504">
        <ele>171.4</ele>
        <time>2022-08-18T11:38:39+02:00</time>
      </trkpt>
      <trkpt lat="44.15638" lon="0.87523">
        <ele>172.5</ele>
        <time>2022-08-18T11:38:51+02:00</time>
      </trkpt>
      <trkpt lat="44.15636" lon="0.87542">
        <ele>173.6</ele>
        <time>2022-08-18T11:38:59+02:00</time>
      </trkpt>
      <trkpt lat="44.15634" lon="0.87563">
        <ele>174.8</ele>
        <time>2022-08-18T11:39:10+02:00</time>
      </trkpt>
      <trkpt lat="44.15633" lon="0.87582">
        <ele>176.1</ele>
        <time>2022-08-18T11:39:21+02:00</time>
      </trkpt>
      <trkpt lat="44.15631" lon="0.87602">
        <ele>176.8</ele>
        <time>2022-08-18T11:39:31+02:00</time>
      </trkpt>
      <trkpt lat="44.15633" lon="0.87621">
        <ele>178.3</ele>
        <time>2022-08-18T11:39:43+02:00</time>
      </trkpt>
      <trkpt lat="44.15633" lon="0.8764">
        <ele>179.4</ele>
        <time>2022-08-18T11:39:56+02:00</time>
      </trkpt>
      <trkpt lat="44.15632" lon="0.87661">
        <ele>180.2</ele>
        <time>2022-08-18T11:40:08+02:00</time>
      </trkpt>
      <trkpt lat="44.15635" lon="0.87681">
        <ele>181.4</ele>
        <time>2022-08-18T11:40:17+02:00</time>
      </trkpt>
      <trkpt lat="44.15637" lon="0.87701">
        <ele>182</ele>
        <time>2022-08-18T11:40:28+02:00</time>
      </trkpt>
      <trkpt lat="44.15635" lon="0.87719">
        <ele>181.9</ele>
        <time>2022-08-18T11:40:39+02:00</time>
      </trkpt>
      <trkpt lat="44.15636" lon="0.87739">
        <ele>182.2</ele>
        <time>2022-08-18T11:40:51+02:00</time>
      </trkpt>
      <trkpt lat="44.15635" lon="0.87777">
        <ele>180.6</ele>
        <time>2022-08-18T11:41:14+02:00</time>
      </trkpt>
      <trkpt lat="44.1564" lon="0.87795">
        <ele>180.3</ele>
        <time>2022-08-18T11:41:25+02:00</time>
      </trkpt>
      <trkpt lat="44.15644" lon="0.87816">
        <ele>179.3</ele>
        <time>2022-08-18T11:41:33+02:00</time>
      </trkpt>
      <trkpt lat="44.15645" lon="0.87837">
        <ele>177.9</ele>
        <time>2022-08-18T11:41:38+02:00</time>
      </trkpt>
      <trkpt lat="44.15647" lon="0.87856">
        <ele>175.9</ele>
        <time>2022-08-18T11:41:47+02:00</time>
      </trkpt>
      <trkpt lat="44.15652" lon="0.87876">
        <ele>174.1</ele>
        <time>2022-08-18T11:41:57+02:00</time>
      </trkpt>
      <trkpt lat="44.15655" lon="0.87894">
        <ele>172.2</ele>
        <time>2022-08-18T11:42:06+02:00</time>
      </trkpt>
      <trkpt lat="44.15663" lon="0.8791">
        <ele>170.6</ele>
        <time>2022-08-18T11:42:28+02:00</time>
      </trkpt>
      <trkpt lat="44.15668" lon="0.87929">
        <ele>169.2</ele>
        <time>2022-08-18T11:42:38+02:00</time>
      </trkpt>
      <trkpt lat="44.15672" lon="0.87948">
        <ele>168.3</ele>
        <time>2022-08-18T11:42:48+02:00</time>
      </trkpt>
      <trkpt lat="44.15675" lon="0.87967">
        <ele>167.5</ele>
        <time>2022-08-18T11:42:57+02:00</time>
      </trkpt>
      <trkpt lat="44.15678" lon="0.87986">
        <ele>166.6</ele>
        <time>2022-08-18T11:43:07+02:00</time>
      </trkpt>
      <trkpt lat="44.15681" lon="0.88006">
        <ele>166.4</ele>
        <time>2022-08-18T11:43:19+02:00</time>
      </trkpt>
      <trkpt lat="44.15685" lon="0.88024">
        <ele>167.4</ele>
        <time>2022-08-18T11:43:30+02:00</time>
      </trkpt>
      <trkpt lat="44.15689" lon="0.88043">
        <ele>168.4</ele>
        <time>2022-08-18T11:43:40+02:00</time>
      </trkpt>
      <trkpt lat="44.15691" lon="0.88062">
        <ele>169.2</ele>
        <time>2022-08-18T11:43:48+02:00</time>
      </trkpt>
      <trkpt lat="44.15694" lon="0.88081">
        <ele>170.2</ele>
        <time>2022-08-18T11:43:57+02:00</time>
      </trkpt>
      <trkpt lat="44.15696" lon="0.881">
        <ele>170.5</ele>
        <time>2022-08-18T11:44:10+02:00</time>
      </trkpt>
      <trkpt lat="44.15701" lon="0.88118">
        <ele>171.2</ele>
        <time>2022-08-18T11:44:21+02:00</time>
      </trkpt>
      <trkpt lat="44.15704" lon="0.88137">
        <ele>171.6</ele>
        <time>2022-08-18T11:44:33+02:00</time>
      </trkpt>
      <trkpt lat="44.1571" lon="0.88156">
        <ele>172.3</ele>
        <time>2022-08-18T11:44:45+02:00</time>
      </trkpt>
      <trkpt lat="44.15715" lon="0.88173">
        <ele>172.7</ele>
        <time>2022-08-18T11:44:57+02:00</time>
      </trkpt>
      <trkpt lat="44.15718" lon="0.88192">
        <ele>172.3</ele>
        <time>2022-08-18T11:45:10+02:00</time>
      </trkpt>
      <trkpt lat="44.15728" lon="0.88228">
        <ele>172</ele>
        <time>2022-08-18T11:45:33+02:00</time>
      </trkpt>
      <trkpt lat="44.15734" lon="0.88246">
        <ele>172</ele>
        <time>2022-08-18T11:45:44+02:00</time>
      </trkpt>
      <trkpt lat="44.15736" lon="0.88266">
        <ele>172.3</ele>
        <time>2022-08-18T11:45:55+02:00</time>
      </trkpt>
      <trkpt lat="44.15742" lon="0.88284">
        <ele>173.3</ele>
        <time>2022-08-18T11:46:08+02:00</time>
      </trkpt>
      <trkpt lat="44.15745" lon="0.88303">
        <ele>174</ele>
        <time>2022-08-18T11:46:22+02:00</time>
      </trkpt>
      <trkpt lat="44.15743" lon="0.88324">
        <ele>173.9</ele>
        <time>2022-08-18T11:46:33+02:00</time>
      </trkpt>
      <trkpt lat="44.15738" lon="0.88343">
        <ele>173.7</ele>
        <time>2022-08-18T11:46:46+02:00</time>
      </trkpt>
      <trkpt lat="44.1574" lon="0.88363">
        <ele>174.4</ele>
        <time>2022-08-18T11:47:08+02:00</time>
      </trkpt>
      <trkpt lat="44.15729" lon="0.88377">
        <ele>173.2</ele>
        <time>2022-08-18T11:49:13+02:00</time>
      </trkpt>
      <trkpt lat="44.15742" lon="0.88368">
        <ele>174.7</ele>
        <time>2022-08-18T11:49:47+02:00</time>
      </trkpt>
      <trkpt lat="44.15752" lon="0.88355">
        <ele>175.7</ele>
        <time>2022-08-18T11:50:06+02:00</time>
      </trkpt>
      <trkpt lat="44.15763" lon="0.88341">
        <ele>176.5</ele>
        <time>2022-08-18T11:50:17+02:00</time>
      </trkpt>
      <trkpt lat="44.15768" lon="0.88324">
        <ele>176.8</ele>
        <time>2022-08-18T11:50:38+02:00</time>
      </trkpt>
      <trkpt lat="44.15773" lon="0.88305">
        <ele>177</ele>
        <time>2022-08-18T11:50:52+02:00</time>
      </trkpt>
      <trkpt lat="44.15785" lon="0.88295">
        <ele>177.9</ele>
        <time>2022-08-18T11:51:00+02:00</time>
      </trkpt>
      <trkpt lat="44.15797" lon="0.88287">
        <ele>178.9</ele>
        <time>2022-08-18T11:51:07+02:00</time>
      </trkpt>
      <trkpt lat="44.1581" lon="0.88278">
        <ele>179.8</ele>
        <time>2022-08-18T11:51:18+02:00</time>
      </trkpt>
      <trkpt lat="44.15822" lon="0.88269">
        <ele>180.7</ele>
        <time>2022-08-18T11:51:26+02:00</time>
      </trkpt>
      <trkpt lat="44.15835" lon="0.88257">
        <ele>181.1</ele>
        <time>2022-08-18T11:51:37+02:00</time>
      </trkpt>
      <trkpt lat="44.15844" lon="0.88241">
        <ele>179.1</ele>
        <time>2022-08-18T11:51:48+02:00</time>
      </trkpt>
      <trkpt lat="44.15856" lon="0.88228">
        <ele>176.9</ele>
        <time>2022-08-18T11:51:56+02:00</time>
      </trkpt>
      <trkpt lat="44.15868" lon="0.88214">
        <ele>174.7</ele>
        <time>2022-08-18T11:52:03+02:00</time>
      </trkpt>
      <trkpt lat="44.15876" lon="0.88197">
        <ele>172.9</ele>
        <time>2022-08-18T11:52:12+02:00</time>
      </trkpt>
      <trkpt lat="44.15885" lon="0.88181">
        <ele>171.1</ele>
        <time>2022-08-18T11:52:23+02:00</time>
      </trkpt>
      <trkpt lat="44.15894" lon="0.88165">
        <ele>169.2</ele>
        <time>2022-08-18T11:52:33+02:00</time>
      </trkpt>
      <trkpt lat="44.15904" lon="0.88151">
        <ele>167.8</ele>
        <time>2022-08-18T11:52:43+02:00</time>
      </trkpt>
      <trkpt lat="44.15915" lon="0.8814">
        <ele>166.3</ele>
        <time>2022-08-18T11:52:58+02:00</time>
      </trkpt>
      <trkpt lat="44.15925" lon="0.88127">
        <ele>165.5</ele>
        <time>2022-08-18T11:53:11+02:00</time>
      </trkpt>
      <trkpt lat="44.15937" lon="0.88118">
        <ele>164.8</ele>
        <time>2022-08-18T11:53:23+02:00</time>
      </trkpt>
      <trkpt lat="44.15949" lon="0.88106">
        <ele>164.1</ele>
        <time>2022-08-18T11:53:36+02:00</time>
      </trkpt>
      <trkpt lat="44.15958" lon="0.88091">
        <ele>163.5</ele>
        <time>2022-08-18T11:53:48+02:00</time>
      </trkpt>
      <trkpt lat="44.15968" lon="0.88079">
        <ele>163</ele>
        <time>2022-08-18T11:54:00+02:00</time>
      </trkpt>
      <trkpt lat="44.1598" lon="0.88068">
        <ele>162.2</ele>
        <time>2022-08-18T11:54:11+02:00</time>
      </trkpt>
      <trkpt lat="44.15992" lon="0.88061">
        <ele>161.1</ele>
        <time>2022-08-18T11:54:23+02:00</time>
      </trkpt>
      <trkpt lat="44.16004" lon="0.88051">
        <ele>160.1</ele>
        <time>2022-08-18T11:54:36+02:00</time>
      </trkpt>
      <trkpt lat="44.16014" lon="0.88036">
        <ele>159.4</ele>
        <time>2022-08-18T11:54:54+02:00</time>
      </trkpt>
      <trkpt lat="44.16026" lon="0.88026">
        <ele>158.9</ele>
        <time>2022-08-18T11:55:08+02:00</time>
      </trkpt>
      <trkpt lat="44.16037" lon="0.88014">
        <ele>158.4</ele>
        <time>2022-08-18T11:55:24+02:00</time>
      </trkpt>
      <trkpt lat="44.16047" lon="0.87999">
        <ele>157.9</ele>
        <time>2022-08-18T11:55:38+02:00</time>
      </trkpt>
      <trkpt lat="44.16059" lon="0.87991">
        <ele>157.6</ele>
        <time>2022-08-18T11:55:49+02:00</time>
      </trkpt>
      <trkpt lat="44.16069" lon="0.87975">
        <ele>157.4</ele>
        <time>2022-08-18T11:56:00+02:00</time>
      </trkpt>
      <trkpt lat="44.16082" lon="0.87965">
        <ele>157.1</ele>
        <time>2022-08-18T11:56:09+02:00</time>
      </trkpt>
      <trkpt lat="44.16093" lon="0.87953">
        <ele>156.5</ele>
        <time>2022-08-18T11:56:18+02:00</time>
      </trkpt>
      <trkpt lat="44.16104" lon="0.87941">
        <ele>155.7</ele>
        <time>2022-08-18T11:56:29+02:00</time>
      </trkpt>
      <trkpt lat="44.16118" lon="0.87935">
        <ele>154.8</ele>
        <time>2022-08-18T11:56:42+02:00</time>
      </trkpt>
      <trkpt lat="44.16128" lon="0.87921">
        <ele>153.9</ele>
        <time>2022-08-18T11:56:55+02:00</time>
      </trkpt>
      <trkpt lat="44.16137" lon="0.87907">
        <ele>152.8</ele>
        <time>2022-08-18T11:57:07+02:00</time>
      </trkpt>
      <trkpt lat="44.16148" lon="0.87893">
        <ele>151.5</ele>
        <time>2022-08-18T11:57:16+02:00</time>
      </trkpt>
      <trkpt lat="44.16158" lon="0.8788">
        <ele>150.3</ele>
        <time>2022-08-18T11:57:25+02:00</time>
      </trkpt>
      <trkpt lat="44.16166" lon="0.87865">
        <ele>149.2</ele>
        <time>2022-08-18T11:57:35+02:00</time>
      </trkpt>
      <trkpt lat="44.16175" lon="0.8785">
        <ele>149.1</ele>
        <time>2022-08-18T11:57:50+02:00</time>
      </trkpt>
      <trkpt lat="44.16186" lon="0.87836">
        <ele>149.2</ele>
        <time>2022-08-18T11:58:03+02:00</time>
      </trkpt>
      <trkpt lat="44.16199" lon="0.87829">
        <ele>149.8</ele>
        <time>2022-08-18T11:58:17+02:00</time>
      </trkpt>
      <trkpt lat="44.16211" lon="0.87819">
        <ele>150.4</ele>
        <time>2022-08-18T11:58:30+02:00</time>
      </trkpt>
      <trkpt lat="44.16223" lon="0.87808">
        <ele>151.1</ele>
        <time>2022-08-18T11:58:42+02:00</time>
      </trkpt>
      <trkpt lat="44.16236" lon="0.87801">
        <ele>151.9</ele>
        <time>2022-08-18T11:58:54+02:00</time>
      </trkpt>
      <trkpt lat="44.16249" lon="0.87793">
        <ele>152.9</ele>
        <time>2022-08-18T11:59:07+02:00</time>
      </trkpt>
      <trkpt lat="44.1626" lon="0.87781">
        <ele>154.4</ele>
        <time>2022-08-18T11:59:22+02:00</time>
      </trkpt>
      <trkpt lat="44.16273" lon="0.87777">
        <ele>156.3</ele>
        <time>2022-08-18T11:59:34+02:00</time>
      </trkpt>
      <trkpt lat="44.16285" lon="0.87769">
        <ele>158.1</ele>
        <time>2022-08-18T11:59:45+02:00</time>
      </trkpt>
      <trkpt lat="44.16298" lon="0.87762">
        <ele>159.9</ele>
        <time>2022-08-18T11:59:58+02:00</time>
      </trkpt>
      <trkpt lat="44.16303" lon="0.87744">
        <ele>160.6</ele>
        <time>2022-08-18T12:03:18+02:00</time>
      </trkpt>
      <trkpt lat="44.16311" lon="0.87729">
        <ele>161.7</ele>
        <time>2022-08-18T12:03:35+02:00</time>
      </trkpt>
      <trkpt lat="44.16318" lon="0.87711">
        <ele>162.7</ele>
        <time>2022-08-18T12:03:50+02:00</time>
      </trkpt>
      <trkpt lat="44.16326" lon="0.87695">
        <ele>163.9</ele>
        <time>2022-08-18T12:04:04+02:00</time>
      </trkpt>
      <trkpt lat="44.16331" lon="0.87677">
        <ele>164.7</ele>
        <time>2022-08-18T12:04:17+02:00</time>
      </trkpt>
      <trkpt lat="44.16337" lon="0.87659">
        <ele>165.2</ele>
        <time>2022-08-18T12:04:31+02:00</time>
      </trkpt>
      <trkpt lat="44.16344" lon="0.87642">
        <ele>165.4</ele>
        <time>2022-08-18T12:04:45+02:00</time>
      </trkpt>
      <trkpt lat="44.16351" lon="0.87625">
        <ele>165.4</ele>
        <time>2022-08-18T12:04:59+02:00</time>
      </trkpt>
      <trkpt lat="44.16357" lon="0.87608">
        <ele>165.4</ele>
        <time>2022-08-18T12:05:13+02:00</time>
      </trkpt>
      <trkpt lat="44.16366" lon="0.87593">
        <ele>165.4</ele>
        <time>2022-08-18T12:05:25+02:00</time>
      </trkpt>
      <trkpt lat="44.16374" lon="0.87576">
        <ele>165.3</ele>
        <time>2022-08-18T12:05:42+02:00</time>
      </trkpt>
      <trkpt lat="44.16384" lon="0.87562">
        <ele>165.5</ele>
        <time>2022-08-18T12:05:56+02:00</time>
      </trkpt>
      <trkpt lat="44.16396" lon="0.87552">
        <ele>165.8</ele>
        <time>2022-08-18T12:06:10+02:00</time>
      </trkpt>
      <trkpt lat="44.16407" lon="0.87541">
        <ele>166.1</ele>
        <time>2022-08-18T12:06:22+02:00</time>
      </trkpt>
      <trkpt lat="44.16418" lon="0.87528">
        <ele>166.3</ele>
        <time>2022-08-18T12:06:35+02:00</time>
      </trkpt>
      <trkpt lat="44.16428" lon="0.87513">
        <ele>165.9</ele>
        <time>2022-08-18T12:06:47+02:00</time>
      </trkpt>
      <trkpt lat="44.1644" lon="0.87503">
        <ele>165.5</ele>
        <time>2022-08-18T12:07:02+02:00</time>
      </trkpt>
      <trkpt lat="44.1645" lon="0.8749">
        <ele>164.5</ele>
        <time>2022-08-18T12:07:15+02:00</time>
      </trkpt>
      <trkpt lat="44.16458" lon="0.87473">
        <ele>163.1</ele>
        <time>2022-08-18T12:07:33+02:00</time>
      </trkpt>
      <trkpt lat="44.16468" lon="0.87461">
        <ele>161.8</ele>
        <time>2022-08-18T12:07:45+02:00</time>
      </trkpt>
      <trkpt lat="44.1648" lon="0.87451">
        <ele>160.6</ele>
        <time>2022-08-18T12:08:14+02:00</time>
      </trkpt>
      <trkpt lat="44.16489" lon="0.87467">
        <ele>161.6</ele>
        <time>2022-08-18T12:08:31+02:00</time>
      </trkpt>
    </trkseg>
  </trk>
</gpx>